<?xml version='1.0' encoding='UTF-8'?><gpx version="1.1" creator="JPX - https://github.com/jenetics/jpx" xmlns="http://www.topografix.com/GPX/1/1"><trk><trkseg><trkpt lat="45.6956491" lon="9.0321367"><ele>288.0</ele><time>2026-04-22T08:05:04.998Z</time></trkpt><trkpt lat="45.695662" lon="9.0322252"><ele>288.0</ele><time>2026-04-22T08:05:07.999Z</time></trkpt><trkpt lat="45.6956011" lon="9.0322812"><ele>288.0</ele><time>2026-04-22T08:05:25.999Z</time></trkpt><trkpt lat="45.6955417" lon="9.0322254"><ele>288.0</ele><time>2026-04-22T08:05:40Z</time></trkpt><trkpt lat="45.6956205" lon="9.0321594"><ele>288.0</ele><time>2026-04-22T08:05:55.998Z</time></trkpt><trkpt lat="45.6957533" lon="9.0321683"><ele>288.0</ele><time>2026-04-22T08:05:57.999Z</time></trkpt><trkpt lat="45.6958396" lon="9.0321765"><ele>288.0</ele><time>2026-04-22T08:05:58.999Z</time></trkpt><trkpt lat="45.6959338" lon="9.0321785"><ele>288.0</ele><time>2026-04-22T08:05:59.999Z</time></trkpt><trkpt lat="45.69603" lon="9.0321775"><ele>288.0</ele><time>2026-04-22T08:06:01Z</time></trkpt><trkpt lat="45.6961275" lon="9.0321736"><ele>288.0</ele><time>2026-04-22T08:06:01.998Z</time></trkpt><trkpt lat="45.6962264" lon="9.0321715"><ele>288.0</ele><time>2026-04-22T08:06:02.999Z</time></trkpt><trkpt lat="45.6963232" lon="9.0321668"><ele>288.5</ele><time>2026-04-22T08:06:04Z</time></trkpt><trkpt lat="45.6964189" lon="9.0321625"><ele>289.0</ele><time>2026-04-22T08:06:05Z</time></trkpt><trkpt lat="45.6965131" lon="9.0321557"><ele>289.5</ele><time>2026-04-22T08:06:05.999Z</time></trkpt><trkpt lat="45.6966015" lon="9.0321497"><ele>290.0</ele><time>2026-04-22T08:06:06.998Z</time></trkpt><trkpt lat="45.6966812" lon="9.0321496"><ele>290.5</ele><time>2026-04-22T08:06:07.999Z</time></trkpt><trkpt lat="45.6967488" lon="9.0321448"><ele>291.0</ele><time>2026-04-22T08:06:09Z</time></trkpt><trkpt lat="45.6968537" lon="9.0321451"><ele>291.5</ele><time>2026-04-22T08:06:11Z</time></trkpt><trkpt lat="45.6969217" lon="9.0321722"><ele>292.0</ele><time>2026-04-22T08:06:12.999Z</time></trkpt><trkpt lat="45.6969625" lon="9.0322802"><ele>292.5</ele><time>2026-04-22T08:06:16Z</time></trkpt><trkpt lat="45.6969615" lon="9.0324223"><ele>293.0</ele><time>2026-04-22T08:06:18Z</time></trkpt><trkpt lat="45.6969594" lon="9.0325124"><ele>293.5</ele><time>2026-04-22T08:06:18.999Z</time></trkpt><trkpt lat="45.6969617" lon="9.0326085"><ele>294.0</ele><time>2026-04-22T08:06:19.999Z</time></trkpt><trkpt lat="45.6969646" lon="9.032708"><ele>294.0</ele><time>2026-04-22T08:06:20.999Z</time></trkpt><trkpt lat="45.6969672" lon="9.0328076"><ele>294.0</ele><time>2026-04-22T08:06:22Z</time></trkpt><trkpt lat="45.6969689" lon="9.032901"><ele>294.0</ele><time>2026-04-22T08:06:22.999Z</time></trkpt><trkpt lat="45.6969681" lon="9.0329936"><ele>294.0</ele><time>2026-04-22T08:06:24Z</time></trkpt><trkpt lat="45.6969664" lon="9.0331409"><ele>294.0</ele><time>2026-04-22T08:06:26Z</time></trkpt><trkpt lat="45.6969649" lon="9.0332627"><ele>294.0</ele><time>2026-04-22T08:06:28Z</time></trkpt><trkpt lat="45.6969651" lon="9.0334115"><ele>294.0</ele><time>2026-04-22T08:06:30Z</time></trkpt><trkpt lat="45.6969651" lon="9.0335861"><ele>294.0</ele><time>2026-04-22T08:06:31.999Z</time></trkpt><trkpt lat="45.6969655" lon="9.0337442"><ele>294.0</ele><time>2026-04-22T08:06:33.998Z</time></trkpt><trkpt lat="45.696968" lon="9.03387"><ele>294.0</ele><time>2026-04-22T08:06:35.999Z</time></trkpt><trkpt lat="45.6969678" lon="9.0339707"><ele>294.0</ele><time>2026-04-22T08:06:38.998Z</time></trkpt><trkpt lat="45.6969747" lon="9.0340777"><ele>294.2</ele><time>2026-04-22T08:06:40.999Z</time></trkpt><trkpt lat="45.696974" lon="9.0342367"><ele>294.4</ele><time>2026-04-22T08:06:43Z</time></trkpt><trkpt lat="45.6969726" lon="9.0343281"><ele>294.6</ele><time>2026-04-22T08:06:44Z</time></trkpt><trkpt lat="45.6969642" lon="9.0344952"><ele>294.8</ele><time>2026-04-22T08:06:46Z</time></trkpt><trkpt lat="45.6969359" lon="9.0346512"><ele>295.0</ele><time>2026-04-22T08:06:48Z</time></trkpt><trkpt lat="45.6969039" lon="9.0348053"><ele>294.6</ele><time>2026-04-22T08:06:49.999Z</time></trkpt><trkpt lat="45.6969057" lon="9.0349664"><ele>294.2</ele><time>2026-04-22T08:06:51.999Z</time></trkpt><trkpt lat="45.6969088" lon="9.0350836"><ele>293.8</ele><time>2026-04-22T08:06:53.999Z</time></trkpt><trkpt lat="45.6968618" lon="9.0351974"><ele>293.4</ele><time>2026-04-22T08:06:56.999Z</time></trkpt><trkpt lat="45.6967708" lon="9.0352038"><ele>293.0</ele><time>2026-04-22T08:06:59.999Z</time></trkpt><trkpt lat="45.6966975" lon="9.0351725"><ele>293.0</ele><time>2026-04-22T08:07:01.998Z</time></trkpt><trkpt lat="45.6966019" lon="9.0352251"><ele>293.0</ele><time>2026-04-22T08:07:04Z</time></trkpt><trkpt lat="45.6965345" lon="9.035292"><ele>293.0</ele><time>2026-04-22T08:07:05.999Z</time></trkpt><trkpt lat="45.6964609" lon="9.0353295"><ele>293.0</ele><time>2026-04-22T08:07:08Z</time></trkpt><trkpt lat="45.6963857" lon="9.0353038"><ele>293.0</ele><time>2026-04-22T08:07:10Z</time></trkpt><trkpt lat="45.6963213" lon="9.0352869"><ele>293.0</ele><time>2026-04-22T08:07:10.999Z</time></trkpt><trkpt lat="45.6962208" lon="9.0352508"><ele>293.0</ele><time>2026-04-22T08:07:12.999Z</time></trkpt><trkpt lat="45.6961541" lon="9.0352329"><ele>293.0</ele><time>2026-04-22T08:07:14.999Z</time></trkpt><trkpt lat="45.6960871" lon="9.0353122"><ele>293.0</ele><time>2026-04-22T08:07:18.999Z</time></trkpt><trkpt lat="45.696073" lon="9.0354022"><ele>293.0</ele><time>2026-04-22T08:07:20.999Z</time></trkpt><trkpt lat="45.6960364" lon="9.0354787"><ele>293.0</ele><time>2026-04-22T08:07:23.999Z</time></trkpt><trkpt lat="45.6959735" lon="9.035483"><ele>293.0</ele><time>2026-04-22T08:07:25.999Z</time></trkpt><trkpt lat="45.6958704" lon="9.0354639"><ele>293.0</ele><time>2026-04-22T08:07:27.999Z</time></trkpt><trkpt lat="45.6957429" lon="9.0354349"><ele>293.0</ele><time>2026-04-22T08:07:29.999Z</time></trkpt><trkpt lat="45.6956736" lon="9.0354215"><ele>293.0</ele><time>2026-04-22T08:07:30.999Z</time></trkpt><trkpt lat="45.6955943" lon="9.0354039"><ele>293.0</ele><time>2026-04-22T08:07:31.999Z</time></trkpt><trkpt lat="45.6955123" lon="9.0353854"><ele>293.0</ele><time>2026-04-22T08:07:32.999Z</time></trkpt><trkpt lat="45.6954299" lon="9.0353642"><ele>293.0</ele><time>2026-04-22T08:07:33.999Z</time></trkpt><trkpt lat="45.6953507" lon="9.0353504"><ele>293.0</ele><time>2026-04-22T08:07:34.999Z</time></trkpt><trkpt lat="45.6952769" lon="9.0353413"><ele>293.0</ele><time>2026-04-22T08:07:35.999Z</time></trkpt><trkpt lat="45.6952046" lon="9.0353385"><ele>293.0</ele><time>2026-04-22T08:07:36.999Z</time></trkpt><trkpt lat="45.6950856" lon="9.0353277"><ele>293.0</ele><time>2026-04-22T08:07:38.999Z</time></trkpt><trkpt lat="45.6949655" lon="9.0353011"><ele>293.0</ele><time>2026-04-22T08:07:40.999Z</time></trkpt><trkpt lat="45.6948612" lon="9.0352766"><ele>292.33333333333337</ele><time>2026-04-22T08:07:42.999Z</time></trkpt><trkpt lat="45.6947774" lon="9.0352661"><ele>291.6666666666667</ele><time>2026-04-22T08:07:44.999Z</time></trkpt><trkpt lat="45.6947118" lon="9.0353106"><ele>291.0</ele><time>2026-04-22T08:07:46.999Z</time></trkpt><trkpt lat="45.6946781" lon="9.0354059"><ele>290.3333333333333</ele><time>2026-04-22T08:07:50Z</time></trkpt><trkpt lat="45.694702" lon="9.0355187"><ele>289.66666666666663</ele><time>2026-04-22T08:07:52.999Z</time></trkpt><trkpt lat="45.6947661" lon="9.0355993"><ele>289.0</ele><time>2026-04-22T08:07:55Z</time></trkpt><trkpt lat="45.6948222" lon="9.0357296"><ele>289.0</ele><time>2026-04-22T08:07:56.999Z</time></trkpt><trkpt lat="45.6948577" lon="9.0358804"><ele>289.0</ele><time>2026-04-22T08:07:59Z</time></trkpt><trkpt lat="45.6948653" lon="9.0359781"><ele>289.0</ele><time>2026-04-22T08:08:00Z</time></trkpt><trkpt lat="45.6948663" lon="9.0360788"><ele>289.0</ele><time>2026-04-22T08:08:01Z</time></trkpt><trkpt lat="45.6948619" lon="9.036187"><ele>289.0</ele><time>2026-04-22T08:08:01.999Z</time></trkpt><trkpt lat="45.6948563" lon="9.036303"><ele>289.0</ele><time>2026-04-22T08:08:02.998Z</time></trkpt><trkpt lat="45.6948546" lon="9.0364338"><ele>289.0</ele><time>2026-04-22T08:08:03.999Z</time></trkpt><trkpt lat="45.6948515" lon="9.0365714"><ele>289.0</ele><time>2026-04-22T08:08:05Z</time></trkpt><trkpt lat="45.6948507" lon="9.0367212"><ele>289.0</ele><time>2026-04-22T08:08:06Z</time></trkpt><trkpt lat="45.6948513" lon="9.0368834"><ele>289.0</ele><time>2026-04-22T08:08:06.999Z</time></trkpt><trkpt lat="45.6948511" lon="9.0370574"><ele>289.0</ele><time>2026-04-22T08:08:07.999Z</time></trkpt><trkpt lat="45.6948509" lon="9.0372325"><ele>290.0</ele><time>2026-04-22T08:08:08.998Z</time></trkpt><trkpt lat="45.6948497" lon="9.0374064"><ele>291.0</ele><time>2026-04-22T08:08:09.999Z</time></trkpt><trkpt lat="45.6948479" lon="9.0375769"><ele>292.0</ele><time>2026-04-22T08:08:10.999Z</time></trkpt><trkpt lat="45.6948471" lon="9.0377469"><ele>293.0</ele><time>2026-04-22T08:08:12Z</time></trkpt><trkpt lat="45.6948447" lon="9.0379085"><ele>293.2</ele><time>2026-04-22T08:08:12.999Z</time></trkpt><trkpt lat="45.6948404" lon="9.038064"><ele>293.4</ele><time>2026-04-22T08:08:13.999Z</time></trkpt><trkpt lat="45.6948401" lon="9.0382215"><ele>293.59999999999997</ele><time>2026-04-22T08:08:14.999Z</time></trkpt><trkpt lat="45.6948393" lon="9.038376"><ele>293.8</ele><time>2026-04-22T08:08:15.999Z</time></trkpt><trkpt lat="45.6948342" lon="9.0385311"><ele>294.0</ele><time>2026-04-22T08:08:16.999Z</time></trkpt><trkpt lat="45.6948277" lon="9.0386857"><ele>293.59999999999997</ele><time>2026-04-22T08:08:17.998Z</time></trkpt><trkpt lat="45.6948207" lon="9.0388311"><ele>293.2</ele><time>2026-04-22T08:08:18.998Z</time></trkpt><trkpt lat="45.6948129" lon="9.0389745"><ele>292.79999999999995</ele><time>2026-04-22T08:08:19.999Z</time></trkpt><trkpt lat="45.6948041" lon="9.0391147"><ele>292.4</ele><time>2026-04-22T08:08:20.999Z</time></trkpt><trkpt lat="45.6947981" lon="9.0392528"><ele>292.0</ele><time>2026-04-22T08:08:22Z</time></trkpt><trkpt lat="45.694792" lon="9.0393881"><ele>291.0</ele><time>2026-04-22T08:08:23Z</time></trkpt><trkpt lat="45.6947872" lon="9.0395078"><ele>290.0</ele><time>2026-04-22T08:08:23.998Z</time></trkpt><trkpt lat="45.6947823" lon="9.0396213"><ele>289.0</ele><time>2026-04-22T08:08:25Z</time></trkpt><trkpt lat="45.6947733" lon="9.0397247"><ele>288.0</ele><time>2026-04-22T08:08:26Z</time></trkpt><trkpt lat="45.6947637" lon="9.0398961"><ele>287.0</ele><time>2026-04-22T08:08:27.999Z</time></trkpt><trkpt lat="45.6947655" lon="9.0400461"><ele>287.0</ele><time>2026-04-22T08:08:30Z</time></trkpt><trkpt lat="45.6947616" lon="9.0401472"><ele>287.0</ele><time>2026-04-22T08:08:32Z</time></trkpt><trkpt lat="45.6947322" lon="9.0402291"><ele>287.0</ele><time>2026-04-22T08:08:34.998Z</time></trkpt><trkpt lat="45.6946702" lon="9.0402693"><ele>287.0</ele><time>2026-04-22T08:08:36.999Z</time></trkpt><trkpt lat="45.6946031" lon="9.040284"><ele>287.0</ele><time>2026-04-22T08:08:37.999Z</time></trkpt><trkpt lat="45.6945357" lon="9.0402859"><ele>287.0</ele><time>2026-04-22T08:08:39Z</time></trkpt><trkpt lat="45.6944725" lon="9.0402902"><ele>287.0</ele><time>2026-04-22T08:08:39.999Z</time></trkpt><trkpt lat="45.6943643" lon="9.0402893"><ele>287.0</ele><time>2026-04-22T08:08:41.999Z</time></trkpt><trkpt lat="45.6942704" lon="9.0403166"><ele>287.0</ele><time>2026-04-22T08:08:44Z</time></trkpt><trkpt lat="45.694201" lon="9.0404123"><ele>287.0</ele><time>2026-04-22T08:08:45.999Z</time></trkpt><trkpt lat="45.6941477" lon="9.0405586"><ele>287.0</ele><time>2026-04-22T08:08:48Z</time></trkpt><trkpt lat="45.6941487" lon="9.0406507"><ele>287.0</ele><time>2026-04-22T08:08:48.999Z</time></trkpt><trkpt lat="45.6941471" lon="9.040752"><ele>287.0</ele><time>2026-04-22T08:08:50Z</time></trkpt><trkpt lat="45.6941419" lon="9.0408699"><ele>287.0</ele><time>2026-04-22T08:08:51Z</time></trkpt><trkpt lat="45.6941362" lon="9.0409871"><ele>287.0</ele><time>2026-04-22T08:08:51.998Z</time></trkpt><trkpt lat="45.6941288" lon="9.0411151"><ele>287.0</ele><time>2026-04-22T08:08:52.999Z</time></trkpt><trkpt lat="45.6941178" lon="9.0412462"><ele>287.0</ele><time>2026-04-22T08:08:53.999Z</time></trkpt><trkpt lat="45.6941022" lon="9.0413802"><ele>287.0</ele><time>2026-04-22T08:08:54.999Z</time></trkpt><trkpt lat="45.6940864" lon="9.0415134"><ele>287.1666666666667</ele><time>2026-04-22T08:08:55.999Z</time></trkpt><trkpt lat="45.6940623" lon="9.0416381"><ele>287.33333333333337</ele><time>2026-04-22T08:08:56.999Z</time></trkpt><trkpt lat="45.6940519" lon="9.0417554"><ele>287.5</ele><time>2026-04-22T08:08:57.999Z</time></trkpt><trkpt lat="45.694032" lon="9.0418644"><ele>287.6666666666667</ele><time>2026-04-22T08:08:59Z</time></trkpt><trkpt lat="45.6940123" lon="9.0419604"><ele>287.8333333333333</ele><time>2026-04-22T08:08:59.999Z</time></trkpt><trkpt lat="45.6939847" lon="9.0420448"><ele>288.0</ele><time>2026-04-22T08:09:00.999Z</time></trkpt><trkpt lat="45.6939569" lon="9.0421288"><ele>288.0</ele><time>2026-04-22T08:09:02Z</time></trkpt><trkpt lat="45.6939069" lon="9.0422054"><ele>288.0</ele><time>2026-04-22T08:09:03Z</time></trkpt><trkpt lat="45.6938608" lon="9.0422836"><ele>288.0</ele><time>2026-04-22T08:09:03.999Z</time></trkpt><trkpt lat="45.6938068" lon="9.0423561"><ele>288.0</ele><time>2026-04-22T08:09:04.999Z</time></trkpt><trkpt lat="45.693743" lon="9.0424315"><ele>288.0</ele><time>2026-04-22T08:09:05.999Z</time></trkpt><trkpt lat="45.6936687" lon="9.0425103"><ele>288.0</ele><time>2026-04-22T08:09:06.999Z</time></trkpt><trkpt lat="45.6935882" lon="9.0425951"><ele>287.0</ele><time>2026-04-22T08:09:08Z</time></trkpt><trkpt lat="45.6935048" lon="9.0426833"><ele>286.0</ele><time>2026-04-22T08:09:09Z</time></trkpt><trkpt lat="45.6934193" lon="9.0427709"><ele>285.0</ele><time>2026-04-22T08:09:10Z</time></trkpt><trkpt lat="45.6933363" lon="9.0428624"><ele>284.0</ele><time>2026-04-22T08:09:10.998Z</time></trkpt><trkpt lat="45.6932528" lon="9.0429444"><ele>283.0</ele><time>2026-04-22T08:09:11.998Z</time></trkpt><trkpt lat="45.6931689" lon="9.0430344"><ele>283.0</ele><time>2026-04-22T08:09:13Z</time></trkpt><trkpt lat="45.6930912" lon="9.0431229"><ele>283.0</ele><time>2026-04-22T08:09:13.999Z</time></trkpt><trkpt lat="45.6930149" lon="9.0432127"><ele>283.0</ele><time>2026-04-22T08:09:14.999Z</time></trkpt><trkpt lat="45.6929448" lon="9.043303"><ele>283.0</ele><time>2026-04-22T08:09:15.999Z</time></trkpt><trkpt lat="45.6928716" lon="9.0433969"><ele>283.0</ele><time>2026-04-22T08:09:17Z</time></trkpt><trkpt lat="45.6928034" lon="9.0435067"><ele>282.2</ele><time>2026-04-22T08:09:17.999Z</time></trkpt><trkpt lat="45.692739" lon="9.0436168"><ele>281.4</ele><time>2026-04-22T08:09:18.999Z</time></trkpt><trkpt lat="45.6926754" lon="9.0437224"><ele>280.59999999999997</ele><time>2026-04-22T08:09:19.999Z</time></trkpt><trkpt lat="45.6926144" lon="9.0438343"><ele>279.8</ele><time>2026-04-22T08:09:20.998Z</time></trkpt><trkpt lat="45.6925528" lon="9.0439434"><ele>279.0</ele><time>2026-04-22T08:09:21.999Z</time></trkpt><trkpt lat="45.6924938" lon="9.0440556"><ele>278.8</ele><time>2026-04-22T08:09:23Z</time></trkpt><trkpt lat="45.6924353" lon="9.0441665"><ele>278.59999999999997</ele><time>2026-04-22T08:09:23.998Z</time></trkpt><trkpt lat="45.6923793" lon="9.0442769"><ele>278.4</ele><time>2026-04-22T08:09:24.998Z</time></trkpt><trkpt lat="45.6923268" lon="9.0443923"><ele>278.2</ele><time>2026-04-22T08:09:25.999Z</time></trkpt><trkpt lat="45.6922765" lon="9.0445048"><ele>278.0</ele><time>2026-04-22T08:09:27Z</time></trkpt><trkpt lat="45.6922294" lon="9.0446194"><ele>278.0</ele><time>2026-04-22T08:09:28Z</time></trkpt><trkpt lat="45.6921973" lon="9.0447283"><ele>278.0</ele><time>2026-04-22T08:09:28.999Z</time></trkpt><trkpt lat="45.6921727" lon="9.0448386"><ele>278.0</ele><time>2026-04-22T08:09:30Z</time></trkpt><trkpt lat="45.6921651" lon="9.0449575"><ele>278.0</ele><time>2026-04-22T08:09:31Z</time></trkpt><trkpt lat="45.6921671" lon="9.0450851"><ele>278.0</ele><time>2026-04-22T08:09:31.998Z</time></trkpt><trkpt lat="45.6921807" lon="9.0452195"><ele>278.0</ele><time>2026-04-22T08:09:33Z</time></trkpt><trkpt lat="45.6921993" lon="9.0453635"><ele>277.6</ele><time>2026-04-22T08:09:33.999Z</time></trkpt><trkpt lat="45.6922174" lon="9.045503"><ele>277.20000000000005</ele><time>2026-04-22T08:09:34.999Z</time></trkpt><trkpt lat="45.6922381" lon="9.0456374"><ele>276.8</ele><time>2026-04-22T08:09:35.999Z</time></trkpt><trkpt lat="45.692259" lon="9.0457627"><ele>276.40000000000003</ele><time>2026-04-22T08:09:36.999Z</time></trkpt><trkpt lat="45.6922862" lon="9.0458791"><ele>276.0</ele><time>2026-04-22T08:09:37.999Z</time></trkpt><trkpt lat="45.6923238" lon="9.0459862"><ele>273.40000000000003</ele><time>2026-04-22T08:09:39Z</time></trkpt><trkpt lat="45.6923734" lon="9.0460804"><ele>270.8</ele><time>2026-04-22T08:09:39.999Z</time></trkpt><trkpt lat="45.6924349" lon="9.0461638"><ele>268.20000000000005</ele><time>2026-04-22T08:09:41Z</time></trkpt><trkpt lat="45.6925068" lon="9.0462434"><ele>265.6</ele><time>2026-04-22T08:09:41.999Z</time></trkpt><trkpt lat="45.6925858" lon="9.046322"><ele>263.0</ele><time>2026-04-22T08:09:42.999Z</time></trkpt><trkpt lat="45.6926687" lon="9.0464014"><ele>263.0</ele><time>2026-04-22T08:09:43.998Z</time></trkpt><trkpt lat="45.6927533" lon="9.0464829"><ele>263.0</ele><time>2026-04-22T08:09:44.999Z</time></trkpt><trkpt lat="45.6928348" lon="9.0465619"><ele>263.0</ele><time>2026-04-22T08:09:45.999Z</time></trkpt><trkpt lat="45.6929149" lon="9.0466408"><ele>263.0</ele><time>2026-04-22T08:09:46.999Z</time></trkpt><trkpt lat="45.6929929" lon="9.0467173"><ele>263.0</ele><time>2026-04-22T08:09:47.999Z</time></trkpt><trkpt lat="45.6930673" lon="9.0468018"><ele>261.6</ele><time>2026-04-22T08:09:48.999Z</time></trkpt><trkpt lat="45.6931415" lon="9.0468935"><ele>260.20000000000005</ele><time>2026-04-22T08:09:49.998Z</time></trkpt><trkpt lat="45.6932126" lon="9.0469905"><ele>258.8</ele><time>2026-04-22T08:09:50.998Z</time></trkpt><trkpt lat="45.6932825" lon="9.047094"><ele>257.40000000000003</ele><time>2026-04-22T08:09:51.999Z</time></trkpt><trkpt lat="45.6933504" lon="9.0472033"><ele>256.0</ele><time>2026-04-22T08:09:52.999Z</time></trkpt><trkpt lat="45.6934152" lon="9.0473193"><ele>256.0</ele><time>2026-04-22T08:09:53.998Z</time></trkpt><trkpt lat="45.6934761" lon="9.0474422"><ele>256.0</ele><time>2026-04-22T08:09:54.998Z</time></trkpt><trkpt lat="45.6935311" lon="9.0475725"><ele>256.0</ele><time>2026-04-22T08:09:55.997Z</time></trkpt><trkpt lat="45.6935785" lon="9.0477094"><ele>256.0</ele><time>2026-04-22T08:09:56.997Z</time></trkpt><trkpt lat="45.6936207" lon="9.0478526"><ele>256.0</ele><time>2026-04-22T08:09:57.998Z</time></trkpt><trkpt lat="45.6936619" lon="9.0480003"><ele>256.5</ele><time>2026-04-22T08:09:58.997Z</time></trkpt><trkpt lat="45.6937011" lon="9.0481542"><ele>257.0</ele><time>2026-04-22T08:09:59.997Z</time></trkpt><trkpt lat="45.6937393" lon="9.0483116"><ele>257.5</ele><time>2026-04-22T08:10:00.997Z</time></trkpt><trkpt lat="45.6937801" lon="9.0484708"><ele>258.0</ele><time>2026-04-22T08:10:01.998Z</time></trkpt><trkpt lat="45.6938197" lon="9.0486244"><ele>258.0</ele><time>2026-04-22T08:10:02.998Z</time></trkpt><trkpt lat="45.6938571" lon="9.0487721"><ele>258.0</ele><time>2026-04-22T08:10:03.999Z</time></trkpt><trkpt lat="45.6938938" lon="9.0489148"><ele>258.0</ele><time>2026-04-22T08:10:04.998Z</time></trkpt><trkpt lat="45.6939309" lon="9.0490552"><ele>258.0</ele><time>2026-04-22T08:10:05.998Z</time></trkpt><trkpt lat="45.6939669" lon="9.0491924"><ele>258.0</ele><time>2026-04-22T08:10:06.999Z</time></trkpt><trkpt lat="45.6940022" lon="9.0493283"><ele>258.8</ele><time>2026-04-22T08:10:07.998Z</time></trkpt><trkpt lat="45.6940356" lon="9.0494646"><ele>259.6</ele><time>2026-04-22T08:10:08.998Z</time></trkpt><trkpt lat="45.6940698" lon="9.0495992"><ele>260.4</ele><time>2026-04-22T08:10:09.998Z</time></trkpt><trkpt lat="45.6941051" lon="9.0497341"><ele>261.2</ele><time>2026-04-22T08:10:10.999Z</time></trkpt><trkpt lat="45.6941403" lon="9.0498689"><ele>262.0</ele><time>2026-04-22T08:10:11.998Z</time></trkpt><trkpt lat="45.6941751" lon="9.0500044"><ele>262.8</ele><time>2026-04-22T08:10:12.998Z</time></trkpt><trkpt lat="45.6942095" lon="9.0501402"><ele>263.6</ele><time>2026-04-22T08:10:13.997Z</time></trkpt><trkpt lat="45.6942436" lon="9.050276"><ele>264.40000000000003</ele><time>2026-04-22T08:10:14.998Z</time></trkpt><trkpt lat="45.6942767" lon="9.0504135"><ele>265.2</ele><time>2026-04-22T08:10:15.997Z</time></trkpt><trkpt lat="45.6943104" lon="9.0505516"><ele>266.0</ele><time>2026-04-22T08:10:16.998Z</time></trkpt><trkpt lat="45.6943455" lon="9.0506925"><ele>266.0</ele><time>2026-04-22T08:10:17.998Z</time></trkpt><trkpt lat="45.6943801" lon="9.0508324"><ele>266.0</ele><time>2026-04-22T08:10:18.998Z</time></trkpt><trkpt lat="45.6944165" lon="9.0509714"><ele>266.0</ele><time>2026-04-22T08:10:19.998Z</time></trkpt><trkpt lat="45.6944534" lon="9.0511115"><ele>266.0</ele><time>2026-04-22T08:10:20.999Z</time></trkpt><trkpt lat="45.6944927" lon="9.0512583"><ele>266.0</ele><time>2026-04-22T08:10:21.998Z</time></trkpt><trkpt lat="45.6945337" lon="9.051415"><ele>266.0</ele><time>2026-04-22T08:10:22.999Z</time></trkpt><trkpt lat="45.6945769" lon="9.0515851"><ele>266.0</ele><time>2026-04-22T08:10:23.998Z</time></trkpt><trkpt lat="45.6946215" lon="9.0517644"><ele>266.0</ele><time>2026-04-22T08:10:24.998Z</time></trkpt><trkpt lat="45.6946655" lon="9.0519346"><ele>266.0</ele><time>2026-04-22T08:10:25.999Z</time></trkpt><trkpt lat="45.6947073" lon="9.0520972"><ele>267.2</ele><time>2026-04-22T08:10:26.998Z</time></trkpt><trkpt lat="45.6947461" lon="9.0522533"><ele>268.40000000000003</ele><time>2026-04-22T08:10:27.998Z</time></trkpt><trkpt lat="45.6947833" lon="9.0524033"><ele>269.6</ele><time>2026-04-22T08:10:28.999Z</time></trkpt><trkpt lat="45.6948191" lon="9.0525461"><ele>270.8</ele><time>2026-04-22T08:10:29.998Z</time></trkpt><trkpt lat="45.6948553" lon="9.0526852"><ele>272.0</ele><time>2026-04-22T08:10:30.998Z</time></trkpt><trkpt lat="45.6948908" lon="9.0528181"><ele>273.6</ele><time>2026-04-22T08:10:31.999Z</time></trkpt><trkpt lat="45.6949236" lon="9.0529563"><ele>275.2</ele><time>2026-04-22T08:10:32.999Z</time></trkpt><trkpt lat="45.6949549" lon="9.0530921"><ele>276.8</ele><time>2026-04-22T08:10:33.998Z</time></trkpt><trkpt lat="45.6949902" lon="9.0532156"><ele>278.4</ele><time>2026-04-22T08:10:34.999Z</time></trkpt><trkpt lat="45.6950224" lon="9.0533414"><ele>280.0</ele><time>2026-04-22T08:10:35.999Z</time></trkpt><trkpt lat="45.6950589" lon="9.0534625"><ele>280.16666666666663</ele><time>2026-04-22T08:10:36.999Z</time></trkpt><trkpt lat="45.6950995" lon="9.053564"><ele>280.3333333333333</ele><time>2026-04-22T08:10:37.998Z</time></trkpt><trkpt lat="45.695137" lon="9.0536614"><ele>280.5</ele><time>2026-04-22T08:10:38.999Z</time></trkpt><trkpt lat="45.6951646" lon="9.0537526"><ele>280.6666666666667</ele><time>2026-04-22T08:10:39.998Z</time></trkpt><trkpt lat="45.6951957" lon="9.053909"><ele>280.83333333333337</ele><time>2026-04-22T08:10:41.999Z</time></trkpt><trkpt lat="45.6952198" lon="9.0540581"><ele>281.0</ele><time>2026-04-22T08:10:43.999Z</time></trkpt><trkpt lat="45.6952322" lon="9.0541931"><ele>281.0</ele><time>2026-04-22T08:10:45.999Z</time></trkpt><trkpt lat="45.6952461" lon="9.0543212"><ele>281.0</ele><time>2026-04-22T08:10:47.997Z</time></trkpt><trkpt lat="45.695261" lon="9.0544443"><ele>281.0</ele><time>2026-04-22T08:10:49.999Z</time></trkpt><trkpt lat="45.6952873" lon="9.0546019"><ele>281.0</ele><time>2026-04-22T08:10:51.998Z</time></trkpt><trkpt lat="45.6953043" lon="9.0546936"><ele>281.0</ele><time>2026-04-22T08:10:52.999Z</time></trkpt><trkpt lat="45.6953264" lon="9.0547915"><ele>281.0</ele><time>2026-04-22T08:10:53.998Z</time></trkpt><trkpt lat="45.6953423" lon="9.054904"><ele>281.5</ele><time>2026-04-22T08:10:54.998Z</time></trkpt><trkpt lat="45.69536" lon="9.0550196"><ele>282.0</ele><time>2026-04-22T08:10:55.998Z</time></trkpt><trkpt lat="45.6953787" lon="9.0551413"><ele>282.5</ele><time>2026-04-22T08:10:56.998Z</time></trkpt><trkpt lat="45.6953995" lon="9.0552638"><ele>283.0</ele><time>2026-04-22T08:10:57.998Z</time></trkpt><trkpt lat="45.6954231" lon="9.0553962"><ele>283.5</ele><time>2026-04-22T08:10:58.997Z</time></trkpt><trkpt lat="45.695445" lon="9.0555283"><ele>284.0</ele><time>2026-04-22T08:10:59.997Z</time></trkpt><trkpt lat="45.6954671" lon="9.0556683"><ele>284.0</ele><time>2026-04-22T08:11:00.998Z</time></trkpt><trkpt lat="45.6954938" lon="9.0558039"><ele>284.0</ele><time>2026-04-22T08:11:01.999Z</time></trkpt><trkpt lat="45.6955165" lon="9.0559386"><ele>284.0</ele><time>2026-04-22T08:11:02.998Z</time></trkpt><trkpt lat="45.6955384" lon="9.056074"><ele>284.0</ele><time>2026-04-22T08:11:03.998Z</time></trkpt><trkpt lat="45.6955591" lon="9.0562028"><ele>284.0</ele><time>2026-04-22T08:11:04.998Z</time></trkpt><trkpt lat="45.6955787" lon="9.056334"><ele>284.0</ele><time>2026-04-22T08:11:05.998Z</time></trkpt><trkpt lat="45.6956022" lon="9.0564695"><ele>284.0</ele><time>2026-04-22T08:11:06.999Z</time></trkpt><trkpt lat="45.6956238" lon="9.0566042"><ele>284.0</ele><time>2026-04-22T08:11:07.998Z</time></trkpt><trkpt lat="45.6956469" lon="9.0567384"><ele>284.0</ele><time>2026-04-22T08:11:08.998Z</time></trkpt><trkpt lat="45.6956729" lon="9.0568749"><ele>284.0</ele><time>2026-04-22T08:11:09.998Z</time></trkpt><trkpt lat="45.6956983" lon="9.0570151"><ele>284.0</ele><time>2026-04-22T08:11:10.997Z</time></trkpt><trkpt lat="45.6957207" lon="9.0571562"><ele>284.0</ele><time>2026-04-22T08:11:11.997Z</time></trkpt><trkpt lat="45.6957427" lon="9.0572979"><ele>284.0</ele><time>2026-04-22T08:11:12.998Z</time></trkpt><trkpt lat="45.6957663" lon="9.0574339"><ele>284.0</ele><time>2026-04-22T08:11:13.998Z</time></trkpt><trkpt lat="45.6957879" lon="9.0575621"><ele>284.0</ele><time>2026-04-22T08:11:14.998Z</time></trkpt><trkpt lat="45.695812" lon="9.057687"><ele>284.0</ele><time>2026-04-22T08:11:15.999Z</time></trkpt><trkpt lat="45.6958328" lon="9.0578092"><ele>284.0</ele><time>2026-04-22T08:11:16.999Z</time></trkpt><trkpt lat="45.6958546" lon="9.0579264"><ele>284.0</ele><time>2026-04-22T08:11:17.998Z</time></trkpt><trkpt lat="45.6958731" lon="9.0580388"><ele>284.0</ele><time>2026-04-22T08:11:18.997Z</time></trkpt><trkpt lat="45.6958942" lon="9.058148"><ele>284.0</ele><time>2026-04-22T08:11:19.998Z</time></trkpt><trkpt lat="45.6959125" lon="9.0582533"><ele>284.0</ele><time>2026-04-22T08:11:20.999Z</time></trkpt><trkpt lat="45.6959348" lon="9.0583624"><ele>284.1666666666667</ele><time>2026-04-22T08:11:21.999Z</time></trkpt><trkpt lat="45.6959547" lon="9.0584764"><ele>284.33333333333337</ele><time>2026-04-22T08:11:22.998Z</time></trkpt><trkpt lat="45.6959743" lon="9.0585928"><ele>284.5</ele><time>2026-04-22T08:11:23.999Z</time></trkpt><trkpt lat="45.6959949" lon="9.0587132"><ele>284.6666666666667</ele><time>2026-04-22T08:11:24.998Z</time></trkpt><trkpt lat="45.6960161" lon="9.058836"><ele>284.8333333333333</ele><time>2026-04-22T08:11:25.998Z</time></trkpt><trkpt lat="45.696038" lon="9.0589634"><ele>285.0</ele><time>2026-04-22T08:11:26.999Z</time></trkpt><trkpt lat="45.6960585" lon="9.0590902"><ele>285.0</ele><time>2026-04-22T08:11:27.998Z</time></trkpt><trkpt lat="45.6960794" lon="9.0592152"><ele>285.0</ele><time>2026-04-22T08:11:28.999Z</time></trkpt><trkpt lat="45.6961002" lon="9.0593394"><ele>285.0</ele><time>2026-04-22T08:11:29.998Z</time></trkpt><trkpt lat="45.6961238" lon="9.0594573"><ele>285.0</ele><time>2026-04-22T08:11:30.998Z</time></trkpt><trkpt lat="45.6961411" lon="9.059579"><ele>285.0</ele><time>2026-04-22T08:11:31.998Z</time></trkpt><trkpt lat="45.6961608" lon="9.059689"><ele>285.0</ele><time>2026-04-22T08:11:32.999Z</time></trkpt><trkpt lat="45.6961744" lon="9.0597889"><ele>285.6</ele><time>2026-04-22T08:11:33.999Z</time></trkpt><trkpt lat="45.6961977" lon="9.0599474"><ele>286.2</ele><time>2026-04-22T08:11:35.998Z</time></trkpt><trkpt lat="45.6962021" lon="9.0600496"><ele>286.8</ele><time>2026-04-22T08:11:37.998Z</time></trkpt><trkpt lat="45.6962255" lon="9.0601676"><ele>287.4</ele><time>2026-04-22T08:12:24Z</time></trkpt><trkpt lat="45.6962472" lon="9.0602939"><ele>288.0</ele><time>2026-04-22T08:12:25.999Z</time></trkpt><trkpt lat="45.6962584" lon="9.0604877"><ele>288.0</ele><time>2026-04-22T08:12:27.999Z</time></trkpt><trkpt lat="45.6962644" lon="9.0606001"><ele>288.0</ele><time>2026-04-22T08:12:28.999Z</time></trkpt><trkpt lat="45.696277" lon="9.0607168"><ele>288.0</ele><time>2026-04-22T08:12:29.999Z</time></trkpt><trkpt lat="45.6962892" lon="9.0608427"><ele>288.0</ele><time>2026-04-22T08:12:31Z</time></trkpt><trkpt lat="45.6963026" lon="9.0609683"><ele>288.0</ele><time>2026-04-22T08:12:32Z</time></trkpt><trkpt lat="45.6963112" lon="9.0610986"><ele>288.0</ele><time>2026-04-22T08:12:32.998Z</time></trkpt><trkpt lat="45.696321" lon="9.0612343"><ele>288.0</ele><time>2026-04-22T08:12:34Z</time></trkpt><trkpt lat="45.6963307" lon="9.0613702"><ele>288.0</ele><time>2026-04-22T08:12:35Z</time></trkpt><trkpt lat="45.6963378" lon="9.0615043"><ele>288.0</ele><time>2026-04-22T08:12:36Z</time></trkpt><trkpt lat="45.6963513" lon="9.0616362"><ele>288.0</ele><time>2026-04-22T08:12:36.998Z</time></trkpt><trkpt lat="45.6963622" lon="9.0617722"><ele>288.0</ele><time>2026-04-22T08:12:37.999Z</time></trkpt><trkpt lat="45.6963711" lon="9.0619128"><ele>288.0</ele><time>2026-04-22T08:12:38.999Z</time></trkpt><trkpt lat="45.6963828" lon="9.0620537"><ele>288.0</ele><time>2026-04-22T08:12:39.998Z</time></trkpt><trkpt lat="45.6963944" lon="9.0621947"><ele>288.0</ele><time>2026-04-22T08:12:41Z</time></trkpt><trkpt lat="45.6964034" lon="9.0623336"><ele>288.0</ele><time>2026-04-22T08:12:41.999Z</time></trkpt><trkpt lat="45.6964145" lon="9.0624694"><ele>288.0</ele><time>2026-04-22T08:12:42.999Z</time></trkpt><trkpt lat="45.6964228" lon="9.0626035"><ele>287.6</ele><time>2026-04-22T08:12:43.999Z</time></trkpt><trkpt lat="45.6964359" lon="9.0627369"><ele>287.20000000000005</ele><time>2026-04-22T08:12:44.999Z</time></trkpt><trkpt lat="45.6964478" lon="9.0628718"><ele>286.8</ele><time>2026-04-22T08:12:45.999Z</time></trkpt><trkpt lat="45.6964576" lon="9.0630071"><ele>286.40000000000003</ele><time>2026-04-22T08:12:46.999Z</time></trkpt><trkpt lat="45.6964665" lon="9.063143"><ele>286.0</ele><time>2026-04-22T08:12:47.999Z</time></trkpt><trkpt lat="45.6964776" lon="9.0632824"><ele>286.0</ele><time>2026-04-22T08:12:49Z</time></trkpt><trkpt lat="45.6964859" lon="9.0634125"><ele>286.0</ele><time>2026-04-22T08:12:49.999Z</time></trkpt><trkpt lat="45.6964936" lon="9.0635373"><ele>286.0</ele><time>2026-04-22T08:12:50.999Z</time></trkpt><trkpt lat="45.6965006" lon="9.0636452"><ele>286.0</ele><time>2026-04-22T08:12:51.999Z</time></trkpt><trkpt lat="45.6965061" lon="9.0637378"><ele>286.0</ele><time>2026-04-22T08:12:52.998Z</time></trkpt><trkpt lat="45.6965243" lon="9.0639291"><ele>286.0</ele><time>2026-04-22T08:12:54.998Z</time></trkpt><trkpt lat="45.6965321" lon="9.064036"><ele>286.0</ele><time>2026-04-22T08:12:55.998Z</time></trkpt><trkpt lat="45.6965417" lon="9.0641477"><ele>286.0</ele><time>2026-04-22T08:12:57Z</time></trkpt><trkpt lat="45.6965503" lon="9.0642679"><ele>286.0</ele><time>2026-04-22T08:12:58Z</time></trkpt><trkpt lat="45.6965596" lon="9.0643949"><ele>286.0</ele><time>2026-04-22T08:12:59Z</time></trkpt><trkpt lat="45.6965675" lon="9.064525"><ele>286.0</ele><time>2026-04-22T08:13:00Z</time></trkpt><trkpt lat="45.6965725" lon="9.0646608"><ele>286.0</ele><time>2026-04-22T08:13:00.999Z</time></trkpt><trkpt lat="45.6965838" lon="9.0647993"><ele>286.0</ele><time>2026-04-22T08:13:01.999Z</time></trkpt><trkpt lat="45.696595" lon="9.0649413"><ele>286.0</ele><time>2026-04-22T08:13:02.999Z</time></trkpt><trkpt lat="45.6966064" lon="9.0650818"><ele>286.0</ele><time>2026-04-22T08:13:03.999Z</time></trkpt><trkpt lat="45.6966165" lon="9.065221"><ele>286.0</ele><time>2026-04-22T08:13:05Z</time></trkpt><trkpt lat="45.6966274" lon="9.0653612"><ele>286.0</ele><time>2026-04-22T08:13:05.999Z</time></trkpt><trkpt lat="45.6966411" lon="9.0654983"><ele>286.0</ele><time>2026-04-22T08:13:06.999Z</time></trkpt><trkpt lat="45.6966543" lon="9.0656414"><ele>286.0</ele><time>2026-04-22T08:13:07.999Z</time></trkpt><trkpt lat="45.6966639" lon="9.0657838"><ele>286.0</ele><time>2026-04-22T08:13:08.999Z</time></trkpt><trkpt lat="45.696676" lon="9.065927"><ele>286.0</ele><time>2026-04-22T08:13:10Z</time></trkpt><trkpt lat="45.6966842" lon="9.0660733"><ele>286.0</ele><time>2026-04-22T08:13:11Z</time></trkpt><trkpt lat="45.6966954" lon="9.0662198"><ele>286.0</ele><time>2026-04-22T08:13:12Z</time></trkpt><trkpt lat="45.6967069" lon="9.0663642"><ele>286.0</ele><time>2026-04-22T08:13:12.999Z</time></trkpt><trkpt lat="45.696715" lon="9.0665108"><ele>286.0</ele><time>2026-04-22T08:13:13.998Z</time></trkpt><trkpt lat="45.6967252" lon="9.0666554"><ele>286.0</ele><time>2026-04-22T08:13:14.998Z</time></trkpt><trkpt lat="45.696737" lon="9.066801"><ele>285.6</ele><time>2026-04-22T08:13:16Z</time></trkpt><trkpt lat="45.6967558" lon="9.0669439"><ele>285.20000000000005</ele><time>2026-04-22T08:13:16.999Z</time></trkpt><trkpt lat="45.6967835" lon="9.0670828"><ele>284.79999999999995</ele><time>2026-04-22T08:13:17.999Z</time></trkpt><trkpt lat="45.6968236" lon="9.0672195"><ele>284.4</ele><time>2026-04-22T08:13:19Z</time></trkpt><trkpt lat="45.6968692" lon="9.067353"><ele>284.0</ele><time>2026-04-22T08:13:20Z</time></trkpt><trkpt lat="45.6969204" lon="9.0674906"><ele>283.4</ele><time>2026-04-22T08:13:20.999Z</time></trkpt><trkpt lat="45.6969725" lon="9.0676117"><ele>282.79999999999995</ele><time>2026-04-22T08:13:21.999Z</time></trkpt><trkpt lat="45.6970207" lon="9.0677359"><ele>282.20000000000005</ele><time>2026-04-22T08:13:22.998Z</time></trkpt><trkpt lat="45.6970733" lon="9.0678605"><ele>281.6</ele><time>2026-04-22T08:13:24Z</time></trkpt><trkpt lat="45.6971258" lon="9.0679872"><ele>281.0</ele><time>2026-04-22T08:13:24.999Z</time></trkpt><trkpt lat="45.6971796" lon="9.0681131"><ele>281.0</ele><time>2026-04-22T08:13:25.999Z</time></trkpt><trkpt lat="45.6972339" lon="9.0682438"><ele>281.0</ele><time>2026-04-22T08:13:26.999Z</time></trkpt><trkpt lat="45.69729" lon="9.06838"><ele>281.0</ele><time>2026-04-22T08:13:27.999Z</time></trkpt><trkpt lat="45.6973491" lon="9.0685203"><ele>281.0</ele><time>2026-04-22T08:13:29Z</time></trkpt><trkpt lat="45.6974098" lon="9.0686628"><ele>281.0</ele><time>2026-04-22T08:13:30Z</time></trkpt><trkpt lat="45.6974708" lon="9.0688068"><ele>280.75</ele><time>2026-04-22T08:13:30.999Z</time></trkpt><trkpt lat="45.6975331" lon="9.0689527"><ele>280.5</ele><time>2026-04-22T08:13:32Z</time></trkpt><trkpt lat="45.6975871" lon="9.0690846"><ele>280.25</ele><time>2026-04-22T08:13:32.999Z</time></trkpt><trkpt lat="45.6976414" lon="9.069232"><ele>280.0</ele><time>2026-04-22T08:13:33.999Z</time></trkpt><trkpt lat="45.6977012" lon="9.0693726"><ele>280.25</ele><time>2026-04-22T08:13:34.999Z</time></trkpt><trkpt lat="45.6977584" lon="9.0695166"><ele>280.5</ele><time>2026-04-22T08:13:35.999Z</time></trkpt><trkpt lat="45.6978193" lon="9.0696656"><ele>280.75</ele><time>2026-04-22T08:13:36.999Z</time></trkpt><trkpt lat="45.6978797" lon="9.0698086"><ele>281.0</ele><time>2026-04-22T08:13:38Z</time></trkpt><trkpt lat="45.6979385" lon="9.0699487"><ele>282.75</ele><time>2026-04-22T08:13:38.999Z</time></trkpt><trkpt lat="45.6980013" lon="9.070096"><ele>284.5</ele><time>2026-04-22T08:13:39.999Z</time></trkpt><trkpt lat="45.698064" lon="9.0702391"><ele>286.25</ele><time>2026-04-22T08:13:40.999Z</time></trkpt><trkpt lat="45.6981273" lon="9.0703808"><ele>288.0</ele><time>2026-04-22T08:13:42Z</time></trkpt><trkpt lat="45.6981906" lon="9.0705232"><ele>288.0</ele><time>2026-04-22T08:13:42.999Z</time></trkpt><trkpt lat="45.698252" lon="9.0706618"><ele>288.0</ele><time>2026-04-22T08:13:43.999Z</time></trkpt><trkpt lat="45.6983151" lon="9.0708086"><ele>288.0</ele><time>2026-04-22T08:13:45Z</time></trkpt><trkpt lat="45.6983736" lon="9.0709506"><ele>288.0</ele><time>2026-04-22T08:13:45.998Z</time></trkpt><trkpt lat="45.6984309" lon="9.0710878"><ele>288.6</ele><time>2026-04-22T08:13:46.999Z</time></trkpt><trkpt lat="45.6984856" lon="9.0712178"><ele>289.20000000000005</ele><time>2026-04-22T08:13:47.998Z</time></trkpt><trkpt lat="45.6985378" lon="9.0713381"><ele>289.8</ele><time>2026-04-22T08:13:48.999Z</time></trkpt><trkpt lat="45.6985861" lon="9.0714533"><ele>290.40000000000003</ele><time>2026-04-22T08:13:50Z</time></trkpt><trkpt lat="45.6986162" lon="9.0715415"><ele>291.0</ele><time>2026-04-22T08:13:50.999Z</time></trkpt><trkpt lat="45.6987337" lon="9.0717985"><ele>292.2</ele><time>2026-04-22T08:13:52.999Z</time></trkpt><trkpt lat="45.6987813" lon="9.0719145"><ele>293.40000000000003</ele><time>2026-04-22T08:13:53.999Z</time></trkpt><trkpt lat="45.6988294" lon="9.0720331"><ele>294.6</ele><time>2026-04-22T08:13:54.999Z</time></trkpt><trkpt lat="45.6988796" lon="9.0721549"><ele>295.8</ele><time>2026-04-22T08:13:56Z</time></trkpt><trkpt lat="45.6989322" lon="9.07228"><ele>297.0</ele><time>2026-04-22T08:13:57Z</time></trkpt><trkpt lat="45.6989865" lon="9.0724101"><ele>297.2</ele><time>2026-04-22T08:13:57.999Z</time></trkpt><trkpt lat="45.6990416" lon="9.0725446"><ele>297.4</ele><time>2026-04-22T08:13:59Z</time></trkpt><trkpt lat="45.6990981" lon="9.0726824"><ele>297.6</ele><time>2026-04-22T08:13:59.999Z</time></trkpt><trkpt lat="45.6991557" lon="9.0728224"><ele>297.8</ele><time>2026-04-22T08:14:00.999Z</time></trkpt><trkpt lat="45.6992132" lon="9.072962"><ele>298.0</ele><time>2026-04-22T08:14:01.998Z</time></trkpt><trkpt lat="45.6992711" lon="9.0731048"><ele>298.0</ele><time>2026-04-22T08:14:02.999Z</time></trkpt><trkpt lat="45.6993311" lon="9.0732475"><ele>298.0</ele><time>2026-04-22T08:14:04Z</time></trkpt><trkpt lat="45.6993934" lon="9.0733912"><ele>298.0</ele><time>2026-04-22T08:14:05Z</time></trkpt><trkpt lat="45.699455" lon="9.073535"><ele>298.0</ele><time>2026-04-22T08:14:05.999Z</time></trkpt><trkpt lat="45.6995173" lon="9.0736789"><ele>299.5</ele><time>2026-04-22T08:14:06.999Z</time></trkpt><trkpt lat="45.6995811" lon="9.0738175"><ele>301.0</ele><time>2026-04-22T08:14:08Z</time></trkpt><trkpt lat="45.6996448" lon="9.0739531"><ele>302.5</ele><time>2026-04-22T08:14:08.999Z</time></trkpt><trkpt lat="45.6997113" lon="9.0740843"><ele>304.0</ele><time>2026-04-22T08:14:10Z</time></trkpt><trkpt lat="45.6997788" lon="9.0742075"><ele>304.0</ele><time>2026-04-22T08:14:10.999Z</time></trkpt><trkpt lat="45.6998408" lon="9.0743245"><ele>304.0</ele><time>2026-04-22T08:14:12Z</time></trkpt><trkpt lat="45.6999031" lon="9.0744398"><ele>304.0</ele><time>2026-04-22T08:14:12.999Z</time></trkpt><trkpt lat="45.6999662" lon="9.0745525"><ele>304.0</ele><time>2026-04-22T08:14:13.999Z</time></trkpt><trkpt lat="45.7000259" lon="9.0746651"><ele>304.0</ele><time>2026-04-22T08:14:14.999Z</time></trkpt><trkpt lat="45.7000861" lon="9.0747797"><ele>304.0</ele><time>2026-04-22T08:14:15.999Z</time></trkpt><trkpt lat="45.7001456" lon="9.0748938"><ele>304.0</ele><time>2026-04-22T08:14:16.999Z</time></trkpt><trkpt lat="45.7002043" lon="9.0750079"><ele>304.0</ele><time>2026-04-22T08:14:17.999Z</time></trkpt><trkpt lat="45.7002147" lon="9.0751012"><ele>304.0</ele><time>2026-04-22T08:14:18.999Z</time></trkpt><trkpt lat="45.7002699" lon="9.0752134"><ele>304.0</ele><time>2026-04-22T08:14:19.999Z</time></trkpt><trkpt lat="45.7003287" lon="9.0753256"><ele>304.0</ele><time>2026-04-22T08:14:20.999Z</time></trkpt><trkpt lat="45.7003931" lon="9.0754382"><ele>304.0</ele><time>2026-04-22T08:14:21.999Z</time></trkpt><trkpt lat="45.7004588" lon="9.0755516"><ele>304.0</ele><time>2026-04-22T08:14:22.999Z</time></trkpt><trkpt lat="45.7005531" lon="9.0756591"><ele>304.0</ele><time>2026-04-22T08:14:24Z</time></trkpt><trkpt lat="45.7006117" lon="9.0757662"><ele>304.0</ele><time>2026-04-22T08:14:24.999Z</time></trkpt><trkpt lat="45.7006708" lon="9.0758748"><ele>304.0</ele><time>2026-04-22T08:14:25.999Z</time></trkpt><trkpt lat="45.700728" lon="9.0759837"><ele>304.0</ele><time>2026-04-22T08:14:27Z</time></trkpt><trkpt lat="45.7007845" lon="9.0761004"><ele>304.0</ele><time>2026-04-22T08:14:27.999Z</time></trkpt><trkpt lat="45.7008399" lon="9.0762221"><ele>304.0</ele><time>2026-04-22T08:14:28.999Z</time></trkpt><trkpt lat="45.7008931" lon="9.0763474"><ele>304.0</ele><time>2026-04-22T08:14:29.999Z</time></trkpt><trkpt lat="45.7009396" lon="9.0764786"><ele>304.0</ele><time>2026-04-22T08:14:30.999Z</time></trkpt><trkpt lat="45.7009803" lon="9.0766139"><ele>304.0</ele><time>2026-04-22T08:14:31.999Z</time></trkpt><trkpt lat="45.701017" lon="9.0767588"><ele>304.0</ele><time>2026-04-22T08:14:32.999Z</time></trkpt><trkpt lat="45.7010533" lon="9.0769071"><ele>304.0</ele><time>2026-04-22T08:14:33.999Z</time></trkpt><trkpt lat="45.7010882" lon="9.077056"><ele>304.0</ele><time>2026-04-22T08:14:34.999Z</time></trkpt><trkpt lat="45.7011208" lon="9.0771995"><ele>303.59999999999997</ele><time>2026-04-22T08:14:35.999Z</time></trkpt><trkpt lat="45.7011532" lon="9.0773456"><ele>303.2</ele><time>2026-04-22T08:14:37Z</time></trkpt><trkpt lat="45.7011865" lon="9.0774875"><ele>302.79999999999995</ele><time>2026-04-22T08:14:38Z</time></trkpt><trkpt lat="45.701219" lon="9.0776276"><ele>302.4</ele><time>2026-04-22T08:14:38.998Z</time></trkpt><trkpt lat="45.7012493" lon="9.0777599"><ele>302.0</ele><time>2026-04-22T08:14:40Z</time></trkpt><trkpt lat="45.7012811" lon="9.077898"><ele>301.8</ele><time>2026-04-22T08:14:40.999Z</time></trkpt><trkpt lat="45.7013116" lon="9.0780313"><ele>301.6</ele><time>2026-04-22T08:14:41.999Z</time></trkpt><trkpt lat="45.7013408" lon="9.0781578"><ele>301.40000000000003</ele><time>2026-04-22T08:14:42.998Z</time></trkpt><trkpt lat="45.7013707" lon="9.0782879"><ele>301.2</ele><time>2026-04-22T08:14:44Z</time></trkpt><trkpt lat="45.7013977" lon="9.0784057"><ele>301.0</ele><time>2026-04-22T08:14:45Z</time></trkpt><trkpt lat="45.7014211" lon="9.0785139"><ele>301.0</ele><time>2026-04-22T08:14:45.999Z</time></trkpt><trkpt lat="45.701444" lon="9.0786113"><ele>301.0</ele><time>2026-04-22T08:14:47Z</time></trkpt><trkpt lat="45.701466" lon="9.0787037"><ele>301.0</ele><time>2026-04-22T08:14:47.999Z</time></trkpt><trkpt lat="45.7014786" lon="9.0787921"><ele>301.0</ele><time>2026-04-22T08:14:49Z</time></trkpt><trkpt lat="45.7015131" lon="9.0789135"><ele>301.0</ele><time>2026-04-22T08:14:50.999Z</time></trkpt><trkpt lat="45.7015543" lon="9.0790195"><ele>301.0</ele><time>2026-04-22T08:14:53.999Z</time></trkpt><trkpt lat="45.7016375" lon="9.0790653"><ele>301.0</ele><time>2026-04-22T08:14:56.999Z</time></trkpt><trkpt lat="45.7017312" lon="9.0790512"><ele>301.0</ele><time>2026-04-22T08:14:58.999Z</time></trkpt><trkpt lat="45.7018559" lon="9.0790098"><ele>301.0</ele><time>2026-04-22T08:15:01Z</time></trkpt><trkpt lat="45.7019295" lon="9.0789981"><ele>301.0</ele><time>2026-04-22T08:15:01.999Z</time></trkpt><trkpt lat="45.7020044" lon="9.0789859"><ele>301.0</ele><time>2026-04-22T08:15:02.999Z</time></trkpt><trkpt lat="45.7020812" lon="9.0789759"><ele>301.0</ele><time>2026-04-22T08:15:03.999Z</time></trkpt><trkpt lat="45.7021571" lon="9.0789673"><ele>300.5</ele><time>2026-04-22T08:15:05Z</time></trkpt><trkpt lat="45.7022348" lon="9.0789555"><ele>300.0</ele><time>2026-04-22T08:15:05.999Z</time></trkpt><trkpt lat="45.7023122" lon="9.078945"><ele>299.5</ele><time>2026-04-22T08:15:06.999Z</time></trkpt><trkpt lat="45.7023895" lon="9.0789313"><ele>299.0</ele><time>2026-04-22T08:15:07.999Z</time></trkpt><trkpt lat="45.7024722" lon="9.0789224"><ele>298.5</ele><time>2026-04-22T08:15:08.999Z</time></trkpt><trkpt lat="45.7025559" lon="9.0789142"><ele>298.0</ele><time>2026-04-22T08:15:09.999Z</time></trkpt><trkpt lat="45.7026403" lon="9.0789066"><ele>298.0</ele><time>2026-04-22T08:15:10.998Z</time></trkpt><trkpt lat="45.7027278" lon="9.0788991"><ele>298.0</ele><time>2026-04-22T08:15:11.999Z</time></trkpt><trkpt lat="45.7028215" lon="9.0788918"><ele>298.0</ele><time>2026-04-22T08:15:12.999Z</time></trkpt><trkpt lat="45.7029129" lon="9.0788867"><ele>298.0</ele><time>2026-04-22T08:15:14Z</time></trkpt><trkpt lat="45.7029996" lon="9.0788801"><ele>298.0</ele><time>2026-04-22T08:15:14.999Z</time></trkpt><trkpt lat="45.703087" lon="9.0788724"><ele>298.0</ele><time>2026-04-22T08:15:15.999Z</time></trkpt><trkpt lat="45.7031676" lon="9.0788687"><ele>298.0</ele><time>2026-04-22T08:15:16.999Z</time></trkpt><trkpt lat="45.7032521" lon="9.0788691"><ele>298.0</ele><time>2026-04-22T08:15:17.999Z</time></trkpt><trkpt lat="45.7033268" lon="9.0788658"><ele>298.0</ele><time>2026-04-22T08:15:18.999Z</time></trkpt><trkpt lat="45.7034007" lon="9.0788618"><ele>298.0</ele><time>2026-04-22T08:15:20Z</time></trkpt><trkpt lat="45.7034738" lon="9.0788533"><ele>298.0</ele><time>2026-04-22T08:15:20.998Z</time></trkpt><trkpt lat="45.7035464" lon="9.0788476"><ele>298.0</ele><time>2026-04-22T08:15:22Z</time></trkpt><trkpt lat="45.7036191" lon="9.0788416"><ele>298.0</ele><time>2026-04-22T08:15:23Z</time></trkpt><trkpt lat="45.7036926" lon="9.0788363"><ele>298.0</ele><time>2026-04-22T08:15:24Z</time></trkpt><trkpt lat="45.7037663" lon="9.0788314"><ele>298.0</ele><time>2026-04-22T08:15:24.998Z</time></trkpt><trkpt lat="45.7038407" lon="9.0788253"><ele>298.0</ele><time>2026-04-22T08:15:25.999Z</time></trkpt><trkpt lat="45.7039131" lon="9.0788208"><ele>298.0</ele><time>2026-04-22T08:15:26.999Z</time></trkpt><trkpt lat="45.7039772" lon="9.0788173"><ele>298.0</ele><time>2026-04-22T08:15:27.999Z</time></trkpt><trkpt lat="45.704089" lon="9.0788153"><ele>298.0</ele><time>2026-04-22T08:15:29.999Z</time></trkpt><trkpt lat="45.7041736" lon="9.0788238"><ele>298.0</ele><time>2026-04-22T08:15:32Z</time></trkpt><trkpt lat="45.704239" lon="9.078849"><ele>298.0</ele><time>2026-04-22T08:15:34Z</time></trkpt><trkpt lat="45.7043328" lon="9.0788664"><ele>298.0</ele><time>2026-04-22T08:15:37Z</time></trkpt><trkpt lat="45.7043953" lon="9.0789047"><ele>298.0</ele><time>2026-04-22T08:15:37.999Z</time></trkpt><trkpt lat="45.7044533" lon="9.0789432"><ele>298.0</ele><time>2026-04-22T08:15:38.999Z</time></trkpt><trkpt lat="45.7045604" lon="9.0790596"><ele>298.4</ele><time>2026-04-22T08:15:41Z</time></trkpt><trkpt lat="45.7046345" lon="9.0791188"><ele>298.8</ele><time>2026-04-22T08:15:42Z</time></trkpt><trkpt lat="45.7047086" lon="9.0791773"><ele>299.2</ele><time>2026-04-22T08:15:42.999Z</time></trkpt><trkpt lat="45.7047822" lon="9.0792332"><ele>299.6</ele><time>2026-04-22T08:15:43.999Z</time></trkpt><trkpt lat="45.7048749" lon="9.0793207"><ele>300.0</ele><time>2026-04-22T08:15:44.999Z</time></trkpt><trkpt lat="45.7049526" lon="9.0793815"><ele>300.0</ele><time>2026-04-22T08:15:45.999Z</time></trkpt><trkpt lat="45.7050288" lon="9.079441"><ele>300.0</ele><time>2026-04-22T08:15:46.998Z</time></trkpt><trkpt lat="45.7051054" lon="9.079501"><ele>300.0</ele><time>2026-04-22T08:15:48Z</time></trkpt><trkpt lat="45.7051825" lon="9.0795612"><ele>300.0</ele><time>2026-04-22T08:15:48.999Z</time></trkpt><trkpt lat="45.7052583" lon="9.0796207"><ele>300.0</ele><time>2026-04-22T08:15:50Z</time></trkpt><trkpt lat="45.7053323" lon="9.0796768"><ele>300.0</ele><time>2026-04-22T08:15:50.999Z</time></trkpt><trkpt lat="45.7054017" lon="9.079731"><ele>300.1666666666667</ele><time>2026-04-22T08:15:51.999Z</time></trkpt><trkpt lat="45.7054619" lon="9.0797793"><ele>300.3333333333333</ele><time>2026-04-22T08:15:52.999Z</time></trkpt><trkpt lat="45.7055636" lon="9.0798575"><ele>300.5</ele><time>2026-04-22T08:15:54.999Z</time></trkpt><trkpt lat="45.7056459" lon="9.0799144"><ele>300.66666666666663</ele><time>2026-04-22T08:15:57Z</time></trkpt><trkpt lat="45.7057263" lon="9.0799698"><ele>300.8333333333333</ele><time>2026-04-22T08:15:59.999Z</time></trkpt><trkpt lat="45.7057912" lon="9.0800445"><ele>301.0</ele><time>2026-04-22T08:16:03.998Z</time></trkpt><trkpt lat="45.7058292" lon="9.0801192"><ele>301.40000000000003</ele><time>2026-04-22T08:16:06.999Z</time></trkpt><trkpt lat="45.7058977" lon="9.0801518"><ele>301.8</ele><time>2026-04-22T08:16:08.999Z</time></trkpt><trkpt lat="45.7059892" lon="9.0801523"><ele>302.20000000000005</ele><time>2026-04-22T08:16:11Z</time></trkpt><trkpt lat="45.7060908" lon="9.0801379"><ele>302.6</ele><time>2026-04-22T08:16:13Z</time></trkpt><trkpt lat="45.706198" lon="9.0801209"><ele>303.0</ele><time>2026-04-22T08:16:14.999Z</time></trkpt><trkpt lat="45.7063058" lon="9.080108"><ele>303.5</ele><time>2026-04-22T08:16:16.999Z</time></trkpt><trkpt lat="45.7064238" lon="9.0800955"><ele>304.0</ele><time>2026-04-22T08:16:18.998Z</time></trkpt><trkpt lat="45.7065012" lon="9.0801086"><ele>304.5</ele><time>2026-04-22T08:16:19.999Z</time></trkpt><trkpt lat="45.7065754" lon="9.0801142"><ele>305.0</ele><time>2026-04-22T08:16:20.999Z</time></trkpt><trkpt lat="45.7066504" lon="9.0801071"><ele>305.5</ele><time>2026-04-22T08:16:21.999Z</time></trkpt><trkpt lat="45.7067227" lon="9.0800898"><ele>306.0</ele><time>2026-04-22T08:16:23Z</time></trkpt><trkpt lat="45.706779" lon="9.0800252"><ele>306.0</ele><time>2026-04-22T08:16:23.999Z</time></trkpt><trkpt lat="45.706851" lon="9.0799925"><ele>306.0</ele><time>2026-04-22T08:16:24.998Z</time></trkpt><trkpt lat="45.7069194" lon="9.0799546"><ele>306.0</ele><time>2026-04-22T08:16:26Z</time></trkpt><trkpt lat="45.7069808" lon="9.0799175"><ele>306.0</ele><time>2026-04-22T08:16:26.998Z</time></trkpt><trkpt lat="45.7070496" lon="9.0798738"><ele>306.0</ele><time>2026-04-22T08:16:27.999Z</time></trkpt><trkpt lat="45.7072179" lon="9.0797859"><ele>306.5</ele><time>2026-04-22T08:16:30Z</time></trkpt><trkpt lat="45.7072897" lon="9.0797437"><ele>307.0</ele><time>2026-04-22T08:16:30.999Z</time></trkpt><trkpt lat="45.7073624" lon="9.0797003"><ele>307.5</ele><time>2026-04-22T08:16:31.999Z</time></trkpt><trkpt lat="45.7074398" lon="9.0796579"><ele>308.0</ele><time>2026-04-22T08:16:32.999Z</time></trkpt><trkpt lat="45.7075164" lon="9.0796098"><ele>308.5</ele><time>2026-04-22T08:16:33.999Z</time></trkpt><trkpt lat="45.7075919" lon="9.079554"><ele>309.0</ele><time>2026-04-22T08:16:34.999Z</time></trkpt><trkpt lat="45.7076702" lon="9.0794947"><ele>309.2</ele><time>2026-04-22T08:16:35.999Z</time></trkpt><trkpt lat="45.7077492" lon="9.0794315"><ele>309.4</ele><time>2026-04-22T08:16:36.998Z</time></trkpt><trkpt lat="45.707832" lon="9.0793681"><ele>309.6</ele><time>2026-04-22T08:16:38Z</time></trkpt><trkpt lat="45.7079195" lon="9.0793073"><ele>309.8</ele><time>2026-04-22T08:16:39Z</time></trkpt><trkpt lat="45.7080093" lon="9.0792491"><ele>310.0</ele><time>2026-04-22T08:16:39.999Z</time></trkpt><trkpt lat="45.7081016" lon="9.079196"><ele>310.0</ele><time>2026-04-22T08:16:41Z</time></trkpt><trkpt lat="45.708199" lon="9.07915"><ele>310.0</ele><time>2026-04-22T08:16:42Z</time></trkpt><trkpt lat="45.7082982" lon="9.0791063"><ele>310.0</ele><time>2026-04-22T08:16:42.999Z</time></trkpt><trkpt lat="45.7083991" lon="9.0790668"><ele>310.0</ele><time>2026-04-22T08:16:44Z</time></trkpt><trkpt lat="45.7084979" lon="9.079035"><ele>310.0</ele><time>2026-04-22T08:16:44.999Z</time></trkpt><trkpt lat="45.7085939" lon="9.0790127"><ele>309.5</ele><time>2026-04-22T08:16:45.999Z</time></trkpt><trkpt lat="45.7086851" lon="9.0790038"><ele>309.0</ele><time>2026-04-22T08:16:46.999Z</time></trkpt><trkpt lat="45.7087677" lon="9.0789991"><ele>308.5</ele><time>2026-04-22T08:16:48Z</time></trkpt><trkpt lat="45.7088425" lon="9.0789965"><ele>308.0</ele><time>2026-04-22T08:16:49Z</time></trkpt><trkpt lat="45.7089095" lon="9.0789988"><ele>307.5</ele><time>2026-04-22T08:16:50Z</time></trkpt><trkpt lat="45.7090061" lon="9.0790027"><ele>307.0</ele><time>2026-04-22T08:16:51.999Z</time></trkpt><trkpt lat="45.7090924" lon="9.0790045"><ele>307.0</ele><time>2026-04-22T08:16:54Z</time></trkpt><trkpt lat="45.7091942" lon="9.0790125"><ele>307.0</ele><time>2026-04-22T08:16:55.999Z</time></trkpt><trkpt lat="45.7093103" lon="9.0790217"><ele>307.0</ele><time>2026-04-22T08:16:57.999Z</time></trkpt><trkpt lat="45.7093736" lon="9.079027"><ele>307.0</ele><time>2026-04-22T08:16:59Z</time></trkpt><trkpt lat="45.7094421" lon="9.0790326"><ele>307.0</ele><time>2026-04-22T08:16:59.999Z</time></trkpt><trkpt lat="45.7095144" lon="9.0790389"><ele>307.0</ele><time>2026-04-22T08:17:00.999Z</time></trkpt><trkpt lat="45.7095891" lon="9.079044"><ele>307.66666666666663</ele><time>2026-04-22T08:17:02Z</time></trkpt><trkpt lat="45.7096691" lon="9.0790465"><ele>308.3333333333333</ele><time>2026-04-22T08:17:03Z</time></trkpt><trkpt lat="45.7097522" lon="9.0790522"><ele>309.0</ele><time>2026-04-22T08:17:03.999Z</time></trkpt><trkpt lat="45.7098375" lon="9.0790597"><ele>309.6666666666667</ele><time>2026-04-22T08:17:04.999Z</time></trkpt><trkpt lat="45.7099258" lon="9.0790661"><ele>310.33333333333337</ele><time>2026-04-22T08:17:05.998Z</time></trkpt><trkpt lat="45.7100168" lon="9.079073"><ele>311.0</ele><time>2026-04-22T08:17:06.999Z</time></trkpt><trkpt lat="45.7101093" lon="9.0790804"><ele>311.0</ele><time>2026-04-22T08:17:08Z</time></trkpt><trkpt lat="45.7102002" lon="9.079086"><ele>311.0</ele><time>2026-04-22T08:17:08.999Z</time></trkpt><trkpt lat="45.7102838" lon="9.0790917"><ele>311.0</ele><time>2026-04-22T08:17:10Z</time></trkpt><trkpt lat="45.7103583" lon="9.0790955"><ele>311.0</ele><time>2026-04-22T08:17:10.998Z</time></trkpt><trkpt lat="45.7104235" lon="9.0790984"><ele>311.0</ele><time>2026-04-22T08:17:12Z</time></trkpt><trkpt lat="45.7105151" lon="9.0791067"><ele>311.0</ele><time>2026-04-22T08:17:13.998Z</time></trkpt><trkpt lat="45.7105943" lon="9.0791137"><ele>310.83333333333337</ele><time>2026-04-22T08:17:15.999Z</time></trkpt><trkpt lat="45.7106995" lon="9.0791149"><ele>310.6666666666667</ele><time>2026-04-22T08:17:17.998Z</time></trkpt><trkpt lat="45.7107646" lon="9.0791111"><ele>310.5</ele><time>2026-04-22T08:17:19Z</time></trkpt><trkpt lat="45.7108377" lon="9.0791028"><ele>310.3333333333333</ele><time>2026-04-22T08:17:20Z</time></trkpt><trkpt lat="45.7109181" lon="9.0790912"><ele>310.16666666666663</ele><time>2026-04-22T08:17:20.999Z</time></trkpt><trkpt lat="45.7110039" lon="9.0790738"><ele>310.0</ele><time>2026-04-22T08:17:21.999Z</time></trkpt><trkpt lat="45.7110915" lon="9.0790605"><ele>310.0</ele><time>2026-04-22T08:17:23Z</time></trkpt><trkpt lat="45.7111799" lon="9.0790471"><ele>310.0</ele><time>2026-04-22T08:17:23.999Z</time></trkpt><trkpt lat="45.7112669" lon="9.0790278"><ele>310.0</ele><time>2026-04-22T08:17:24.999Z</time></trkpt><trkpt lat="45.7113552" lon="9.0790103"><ele>310.0</ele><time>2026-04-22T08:17:25.999Z</time></trkpt><trkpt lat="45.7114448" lon="9.0789969"><ele>310.0</ele><time>2026-04-22T08:17:26.999Z</time></trkpt><trkpt lat="45.711534" lon="9.0789806"><ele>310.0</ele><time>2026-04-22T08:17:27.999Z</time></trkpt><trkpt lat="45.7116225" lon="9.0789646"><ele>310.0</ele><time>2026-04-22T08:17:28.998Z</time></trkpt><trkpt lat="45.7117121" lon="9.0789519"><ele>310.0</ele><time>2026-04-22T08:17:30Z</time></trkpt><trkpt lat="45.7118031" lon="9.078945"><ele>310.0</ele><time>2026-04-22T08:17:30.999Z</time></trkpt><trkpt lat="45.7118936" lon="9.0789409"><ele>310.0</ele><time>2026-04-22T08:17:31.999Z</time></trkpt><trkpt lat="45.7119858" lon="9.0789426"><ele>310.0</ele><time>2026-04-22T08:17:33Z</time></trkpt><trkpt lat="45.7120781" lon="9.0789516"><ele>310.2</ele><time>2026-04-22T08:17:34Z</time></trkpt><trkpt lat="45.712172" lon="9.0789616"><ele>310.4</ele><time>2026-04-22T08:17:35Z</time></trkpt><trkpt lat="45.7122654" lon="9.0789734"><ele>310.6</ele><time>2026-04-22T08:17:35.999Z</time></trkpt><trkpt lat="45.7123591" lon="9.0789891"><ele>310.8</ele><time>2026-04-22T08:17:36.999Z</time></trkpt><trkpt lat="45.7124534" lon="9.0790058"><ele>311.0</ele><time>2026-04-22T08:17:37.999Z</time></trkpt><trkpt lat="45.7125477" lon="9.079026"><ele>311.0</ele><time>2026-04-22T08:17:38.999Z</time></trkpt><trkpt lat="45.712643" lon="9.0790474"><ele>311.0</ele><time>2026-04-22T08:17:39.999Z</time></trkpt><trkpt lat="45.7127361" lon="9.0790707"><ele>311.0</ele><time>2026-04-22T08:17:40.999Z</time></trkpt><trkpt lat="45.7128297" lon="9.0790941"><ele>311.0</ele><time>2026-04-22T08:17:41.999Z</time></trkpt><trkpt lat="45.712923" lon="9.0791192"><ele>311.0</ele><time>2026-04-22T08:17:42.999Z</time></trkpt><trkpt lat="45.7130184" lon="9.079148"><ele>311.40000000000003</ele><time>2026-04-22T08:17:43.999Z</time></trkpt><trkpt lat="45.713114" lon="9.0791769"><ele>311.8</ele><time>2026-04-22T08:17:44.999Z</time></trkpt><trkpt lat="45.7132081" lon="9.079208"><ele>312.20000000000005</ele><time>2026-04-22T08:17:45.999Z</time></trkpt><trkpt lat="45.7132992" lon="9.0792392"><ele>312.6</ele><time>2026-04-22T08:17:46.999Z</time></trkpt><trkpt lat="45.7133897" lon="9.0792731"><ele>313.0</ele><time>2026-04-22T08:17:48Z</time></trkpt><trkpt lat="45.7134774" lon="9.0793035"><ele>313.0</ele><time>2026-04-22T08:17:49Z</time></trkpt><trkpt lat="45.7135609" lon="9.0793302"><ele>313.0</ele><time>2026-04-22T08:17:49.999Z</time></trkpt><trkpt lat="45.7136412" lon="9.0793576"><ele>313.0</ele><time>2026-04-22T08:17:51Z</time></trkpt><trkpt lat="45.7137181" lon="9.0793834"><ele>313.0</ele><time>2026-04-22T08:17:51.999Z</time></trkpt><trkpt lat="45.7137911" lon="9.0794074"><ele>313.0</ele><time>2026-04-22T08:17:52.999Z</time></trkpt><trkpt lat="45.7138597" lon="9.0794295"><ele>313.0</ele><time>2026-04-22T08:17:53.999Z</time></trkpt><trkpt lat="45.71392" lon="9.0794568"><ele>313.16666666666663</ele><time>2026-04-22T08:17:54.999Z</time></trkpt><trkpt lat="45.7140081" lon="9.0795091"><ele>313.3333333333333</ele><time>2026-04-22T08:17:57Z</time></trkpt><trkpt lat="45.7140654" lon="9.0795726"><ele>313.5</ele><time>2026-04-22T08:17:59.999Z</time></trkpt><trkpt lat="45.7141595" lon="9.0795315"><ele>313.6666666666667</ele><time>2026-04-22T08:18:08.999Z</time></trkpt><trkpt lat="45.7142188" lon="9.0794797"><ele>313.83333333333337</ele><time>2026-04-22T08:18:09.999Z</time></trkpt><trkpt lat="45.7142852" lon="9.0793994"><ele>314.0</ele><time>2026-04-22T08:18:11Z</time></trkpt><trkpt lat="45.7143605" lon="9.079309"><ele>314.0</ele><time>2026-04-22T08:18:11.999Z</time></trkpt><trkpt lat="45.7144451" lon="9.0792105"><ele>314.0</ele><time>2026-04-22T08:18:12.999Z</time></trkpt><trkpt lat="45.7145358" lon="9.0791075"><ele>314.0</ele><time>2026-04-22T08:18:14Z</time></trkpt><trkpt lat="45.7146319" lon="9.0789979"><ele>314.0</ele><time>2026-04-22T08:18:14.999Z</time></trkpt><trkpt lat="45.7147352" lon="9.0788847"><ele>314.0</ele><time>2026-04-22T08:18:15.999Z</time></trkpt><trkpt lat="45.7148412" lon="9.07877"><ele>314.0</ele><time>2026-04-22T08:18:16.999Z</time></trkpt><trkpt lat="45.7149494" lon="9.0786524"><ele>314.0</ele><time>2026-04-22T08:18:17.998Z</time></trkpt><trkpt lat="45.7150571" lon="9.0785345"><ele>314.0</ele><time>2026-04-22T08:18:18.999Z</time></trkpt><trkpt lat="45.7151636" lon="9.0784166"><ele>314.25</ele><time>2026-04-22T08:18:19.998Z</time></trkpt><trkpt lat="45.7152678" lon="9.0782989"><ele>314.5</ele><time>2026-04-22T08:18:20.999Z</time></trkpt><trkpt lat="45.7153717" lon="9.0781832"><ele>314.75</ele><time>2026-04-22T08:18:21.998Z</time></trkpt><trkpt lat="45.7154729" lon="9.0780683"><ele>315.0</ele><time>2026-04-22T08:18:22.999Z</time></trkpt><trkpt lat="45.7155721" lon="9.0779574"><ele>314.25</ele><time>2026-04-22T08:18:23.999Z</time></trkpt><trkpt lat="45.7156752" lon="9.0778461"><ele>313.5</ele><time>2026-04-22T08:18:25Z</time></trkpt><trkpt lat="45.7157725" lon="9.0777387"><ele>312.75</ele><time>2026-04-22T08:18:25.998Z</time></trkpt><trkpt lat="45.7158676" lon="9.0776352"><ele>312.0</ele><time>2026-04-22T08:18:26.999Z</time></trkpt><trkpt lat="45.715968" lon="9.0775276"><ele>312.5</ele><time>2026-04-22T08:18:28Z</time></trkpt><trkpt lat="45.7160635" lon="9.0774244"><ele>313.0</ele><time>2026-04-22T08:18:28.998Z</time></trkpt><trkpt lat="45.716155" lon="9.0773267"><ele>313.5</ele><time>2026-04-22T08:18:30Z</time></trkpt><trkpt lat="45.7162465" lon="9.077229"><ele>314.0</ele><time>2026-04-22T08:18:30.999Z</time></trkpt><trkpt lat="45.7163364" lon="9.0771326"><ele>314.0</ele><time>2026-04-22T08:18:31.999Z</time></trkpt><trkpt lat="45.7164254" lon="9.0770362"><ele>314.0</ele><time>2026-04-22T08:18:33Z</time></trkpt><trkpt lat="45.7165098" lon="9.0769472"><ele>314.0</ele><time>2026-04-22T08:18:33.999Z</time></trkpt><trkpt lat="45.7165876" lon="9.0768709"><ele>314.0</ele><time>2026-04-22T08:18:35Z</time></trkpt><trkpt lat="45.7166599" lon="9.0768058"><ele>314.0</ele><time>2026-04-22T08:18:35.999Z</time></trkpt><trkpt lat="45.7167309" lon="9.0767473"><ele>314.0</ele><time>2026-04-22T08:18:36.998Z</time></trkpt><trkpt lat="45.7168032" lon="9.0766942"><ele>314.0</ele><time>2026-04-22T08:18:37.999Z</time></trkpt><trkpt lat="45.7168716" lon="9.0766471"><ele>314.0</ele><time>2026-04-22T08:18:39Z</time></trkpt><trkpt lat="45.7169338" lon="9.0766064"><ele>314.0</ele><time>2026-04-22T08:18:40Z</time></trkpt><trkpt lat="45.7169866" lon="9.0765554"><ele>314.0</ele><time>2026-04-22T08:18:40.999Z</time></trkpt><trkpt lat="45.7170372" lon="9.0764427"><ele>314.0</ele><time>2026-04-22T08:18:42.999Z</time></trkpt><trkpt lat="45.7170293" lon="9.0763213"><ele>314.2</ele><time>2026-04-22T08:18:44.999Z</time></trkpt><trkpt lat="45.7169604" lon="9.0762208"><ele>314.4</ele><time>2026-04-22T08:18:46.999Z</time></trkpt><trkpt lat="45.7168566" lon="9.0761509"><ele>314.6</ele><time>2026-04-22T08:18:49Z</time></trkpt><trkpt lat="45.7167864" lon="9.0760767"><ele>314.8</ele><time>2026-04-22T08:18:50.999Z</time></trkpt><trkpt lat="45.7167328" lon="9.0759654"><ele>315.0</ele><time>2026-04-22T08:18:52.999Z</time></trkpt><trkpt lat="45.7167075" lon="9.0758253"><ele>315.1666666666667</ele><time>2026-04-22T08:18:54.999Z</time></trkpt><trkpt lat="45.7166614" lon="9.0756874"><ele>315.3333333333333</ele><time>2026-04-22T08:18:57Z</time></trkpt><trkpt lat="45.7166165" lon="9.0755858"><ele>315.5</ele><time>2026-04-22T08:18:58.999Z</time></trkpt><trkpt lat="45.7165476" lon="9.0755466"><ele>315.66666666666663</ele><time>2026-04-22T08:19:00.999Z</time></trkpt><trkpt lat="45.7164796" lon="9.0755718"><ele>315.8333333333333</ele><time>2026-04-22T08:19:02.999Z</time></trkpt><trkpt lat="45.7164241" lon="9.0756206"><ele>316.0</ele><time>2026-04-22T08:19:04.999Z</time></trkpt><trkpt lat="45.7163961" lon="9.0757028"><ele>315.8333333333333</ele><time>2026-04-22T08:19:08Z</time></trkpt><trkpt lat="45.7164249" lon="9.0757953"><ele>315.66666666666663</ele><time>2026-04-22T08:19:09.999Z</time></trkpt><trkpt lat="45.7164749" lon="9.075898"><ele>315.5</ele><time>2026-04-22T08:19:11.999Z</time></trkpt><trkpt lat="45.7165215" lon="9.0759877"><ele>315.3333333333333</ele><time>2026-04-22T08:19:13.999Z</time></trkpt><trkpt lat="45.7165618" lon="9.0760858"><ele>315.1666666666667</ele><time>2026-04-22T08:19:16.999Z</time></trkpt><trkpt lat="45.7165854" lon="9.0761793"><ele>315.0</ele><time>2026-04-22T08:19:21Z</time></trkpt><trkpt lat="45.71652" lon="9.0760001"><ele>315.0</ele><time>2026-04-22T08:19:53.999Z</time></trkpt><trkpt lat="45.7164778" lon="9.0758759"><ele>315.0</ele><time>2026-04-22T08:19:55.999Z</time></trkpt><trkpt lat="45.7164442" lon="9.0757933"><ele>315.0</ele><time>2026-04-22T08:19:57.999Z</time></trkpt><trkpt lat="45.7164224" lon="9.0757046"><ele>315.0</ele><time>2026-04-22T08:20:03.999Z</time></trkpt><trkpt lat="45.7163468" lon="9.0756971"><ele>315.0</ele><time>2026-04-22T08:20:05.999Z</time></trkpt><trkpt lat="45.7162609" lon="9.0757534"><ele>315.0</ele><time>2026-04-22T08:20:07.999Z</time></trkpt><trkpt lat="45.7162388" lon="9.075838"><ele>315.0</ele><time>2026-04-22T08:20:10Z</time></trkpt><trkpt lat="45.716254" lon="9.0759455"><ele>315.0</ele><time>2026-04-22T08:20:12.999Z</time></trkpt></trkseg><trkseg><trkpt lat="45.7163334" lon="9.0759271"><ele>315.0</ele><time>2026-04-22T08:41:18.998Z</time></trkpt><trkpt lat="45.7163204" lon="9.0758371"><ele>315.0</ele><time>2026-04-22T08:41:21.998Z</time></trkpt><trkpt lat="45.7162696" lon="9.0757521"><ele>315.0</ele><time>2026-04-22T08:41:24.998Z</time></trkpt><trkpt lat="45.716329" lon="9.0756816"><ele>315.0</ele><time>2026-04-22T08:41:27.998Z</time></trkpt><trkpt lat="45.7164258" lon="9.0756709"><ele>315.0</ele><time>2026-04-22T08:41:30.999Z</time></trkpt><trkpt lat="45.7165004" lon="9.0756476"><ele>315.0</ele><time>2026-04-22T08:41:32.998Z</time></trkpt><trkpt lat="45.7165747" lon="9.0756322"><ele>315.0</ele><time>2026-04-22T08:41:34.998Z</time></trkpt><trkpt lat="45.7166316" lon="9.075675"><ele>315.0</ele><time>2026-04-22T08:41:36.998Z</time></trkpt><trkpt lat="45.7166762" lon="9.0758023"><ele>315.0</ele><time>2026-04-22T08:41:38.998Z</time></trkpt><trkpt lat="45.7167024" lon="9.0758972"><ele>315.0</ele><time>2026-04-22T08:41:39.998Z</time></trkpt><trkpt lat="45.7167392" lon="9.0760566"><ele>315.0</ele><time>2026-04-22T08:41:41.997Z</time></trkpt><trkpt lat="45.716753" lon="9.0761858"><ele>315.0</ele><time>2026-04-22T08:41:43.999Z</time></trkpt><trkpt lat="45.7167449" lon="9.0762951"><ele>315.0</ele><time>2026-04-22T08:41:45.999Z</time></trkpt><trkpt lat="45.716722" lon="9.0764396"><ele>315.0</ele><time>2026-04-22T08:41:47.999Z</time></trkpt><trkpt lat="45.7166689" lon="9.0766115"><ele>315.0</ele><time>2026-04-22T08:41:49.998Z</time></trkpt><trkpt lat="45.7166242" lon="9.0766965"><ele>315.0</ele><time>2026-04-22T08:41:50.998Z</time></trkpt><trkpt lat="45.716569" lon="9.0767806"><ele>315.0</ele><time>2026-04-22T08:41:51.998Z</time></trkpt><trkpt lat="45.7165048" lon="9.0768646"><ele>314.8</ele><time>2026-04-22T08:41:52.997Z</time></trkpt><trkpt lat="45.7164329" lon="9.0769461"><ele>314.6</ele><time>2026-04-22T08:41:53.998Z</time></trkpt><trkpt lat="45.7163554" lon="9.077029"><ele>314.4</ele><time>2026-04-22T08:41:54.999Z</time></trkpt><trkpt lat="45.7162747" lon="9.0771154"><ele>314.2</ele><time>2026-04-22T08:41:55.998Z</time></trkpt><trkpt lat="45.7161918" lon="9.0772063"><ele>314.0</ele><time>2026-04-22T08:41:56.999Z</time></trkpt><trkpt lat="45.7161064" lon="9.0772983"><ele>314.0</ele><time>2026-04-22T08:41:57.999Z</time></trkpt><trkpt lat="45.7160186" lon="9.0773927"><ele>314.0</ele><time>2026-04-22T08:41:58.998Z</time></trkpt><trkpt lat="45.7159316" lon="9.0774888"><ele>314.0</ele><time>2026-04-22T08:41:59.998Z</time></trkpt><trkpt lat="45.7158439" lon="9.077587"><ele>314.0</ele><time>2026-04-22T08:42:00.998Z</time></trkpt><trkpt lat="45.7157539" lon="9.0776845"><ele>314.0</ele><time>2026-04-22T08:42:01.997Z</time></trkpt><trkpt lat="45.7156655" lon="9.0777822"><ele>313.5</ele><time>2026-04-22T08:42:02.997Z</time></trkpt><trkpt lat="45.7155759" lon="9.077879"><ele>313.0</ele><time>2026-04-22T08:42:03.999Z</time></trkpt><trkpt lat="45.7154844" lon="9.0779769"><ele>312.5</ele><time>2026-04-22T08:42:04.998Z</time></trkpt><trkpt lat="45.7153924" lon="9.0780744"><ele>312.0</ele><time>2026-04-22T08:42:05.998Z</time></trkpt><trkpt lat="45.7153009" lon="9.0781747"><ele>312.5</ele><time>2026-04-22T08:42:06.998Z</time></trkpt><trkpt lat="45.7152087" lon="9.078276"><ele>313.0</ele><time>2026-04-22T08:42:07.999Z</time></trkpt><trkpt lat="45.715117" lon="9.0783799"><ele>313.5</ele><time>2026-04-22T08:42:08.999Z</time></trkpt><trkpt lat="45.715026" lon="9.078484"><ele>314.0</ele><time>2026-04-22T08:42:09.998Z</time></trkpt><trkpt lat="45.7149325" lon="9.0785887"><ele>314.0</ele><time>2026-04-22T08:42:10.999Z</time></trkpt><trkpt lat="45.7148376" lon="9.0786913"><ele>314.0</ele><time>2026-04-22T08:42:11.998Z</time></trkpt><trkpt lat="45.7147441" lon="9.0787914"><ele>314.0</ele><time>2026-04-22T08:42:12.998Z</time></trkpt><trkpt lat="45.7146537" lon="9.07889"><ele>314.0</ele><time>2026-04-22T08:42:13.998Z</time></trkpt><trkpt lat="45.714566" lon="9.0789864"><ele>314.0</ele><time>2026-04-22T08:42:14.998Z</time></trkpt><trkpt lat="45.7144831" lon="9.079078"><ele>314.0</ele><time>2026-04-22T08:42:15.999Z</time></trkpt><trkpt lat="45.7144091" lon="9.0791652"><ele>314.0</ele><time>2026-04-22T08:42:16.999Z</time></trkpt><trkpt lat="45.7143466" lon="9.0792394"><ele>314.0</ele><time>2026-04-22T08:42:17.998Z</time></trkpt><trkpt lat="45.7142916" lon="9.0793019"><ele>314.0</ele><time>2026-04-22T08:42:18.998Z</time></trkpt><trkpt lat="45.7142048" lon="9.0793963"><ele>314.0</ele><time>2026-04-22T08:42:20.999Z</time></trkpt><trkpt lat="45.7141227" lon="9.0794378"><ele>314.0</ele><time>2026-04-22T08:42:22.999Z</time></trkpt><trkpt lat="45.7140185" lon="9.0794315"><ele>314.0</ele><time>2026-04-22T08:42:24.999Z</time></trkpt><trkpt lat="45.7139506" lon="9.0794128"><ele>314.0</ele><time>2026-04-22T08:42:25.999Z</time></trkpt><trkpt lat="45.7138807" lon="9.0793937"><ele>314.0</ele><time>2026-04-22T08:42:26.998Z</time></trkpt><trkpt lat="45.7138066" lon="9.0793747"><ele>314.0</ele><time>2026-04-22T08:42:27.999Z</time></trkpt><trkpt lat="45.7137298" lon="9.0793537"><ele>314.0</ele><time>2026-04-22T08:42:28.998Z</time></trkpt><trkpt lat="45.7136541" lon="9.0793309"><ele>314.0</ele><time>2026-04-22T08:42:29.998Z</time></trkpt><trkpt lat="45.7135783" lon="9.0793028"><ele>314.0</ele><time>2026-04-22T08:42:30.998Z</time></trkpt><trkpt lat="45.7135007" lon="9.079274"><ele>314.0</ele><time>2026-04-22T08:42:31.998Z</time></trkpt><trkpt lat="45.7134233" lon="9.0792442"><ele>314.0</ele><time>2026-04-22T08:42:32.999Z</time></trkpt><trkpt lat="45.713344" lon="9.0792186"><ele>314.0</ele><time>2026-04-22T08:42:33.999Z</time></trkpt><trkpt lat="45.7132625" lon="9.0791957"><ele>313.83333333333337</ele><time>2026-04-22T08:42:34.998Z</time></trkpt><trkpt lat="45.7131768" lon="9.0791735"><ele>313.6666666666667</ele><time>2026-04-22T08:42:35.998Z</time></trkpt><trkpt lat="45.7130912" lon="9.0791459"><ele>313.5</ele><time>2026-04-22T08:42:36.999Z</time></trkpt><trkpt lat="45.7130065" lon="9.0791198"><ele>313.3333333333333</ele><time>2026-04-22T08:42:37.998Z</time></trkpt><trkpt lat="45.7129233" lon="9.0790932"><ele>313.16666666666663</ele><time>2026-04-22T08:42:38.998Z</time></trkpt><trkpt lat="45.7128419" lon="9.0790654"><ele>313.0</ele><time>2026-04-22T08:42:39.998Z</time></trkpt><trkpt lat="45.7127603" lon="9.0790392"><ele>312.66666666666663</ele><time>2026-04-22T08:42:40.999Z</time></trkpt><trkpt lat="45.7126772" lon="9.0790161"><ele>312.3333333333333</ele><time>2026-04-22T08:42:41.998Z</time></trkpt><trkpt lat="45.7125909" lon="9.078996"><ele>312.0</ele><time>2026-04-22T08:42:42.999Z</time></trkpt><trkpt lat="45.7125048" lon="9.0789777"><ele>311.6666666666667</ele><time>2026-04-22T08:42:43.999Z</time></trkpt><trkpt lat="45.7124184" lon="9.0789628"><ele>311.33333333333337</ele><time>2026-04-22T08:42:44.998Z</time></trkpt><trkpt lat="45.712329" lon="9.0789483"><ele>311.0</ele><time>2026-04-22T08:42:45.998Z</time></trkpt><trkpt lat="45.7122393" lon="9.078934"><ele>311.0</ele><time>2026-04-22T08:42:46.998Z</time></trkpt><trkpt lat="45.712149" lon="9.0789192"><ele>311.0</ele><time>2026-04-22T08:42:47.998Z</time></trkpt><trkpt lat="45.7120579" lon="9.0789103"><ele>311.0</ele><time>2026-04-22T08:42:48.999Z</time></trkpt><trkpt lat="45.7119656" lon="9.0789081"><ele>311.0</ele><time>2026-04-22T08:42:49.999Z</time></trkpt><trkpt lat="45.7118729" lon="9.0789137"><ele>311.0</ele><time>2026-04-22T08:42:50.998Z</time></trkpt><trkpt lat="45.7117825" lon="9.0789207"><ele>310.8</ele><time>2026-04-22T08:42:51.997Z</time></trkpt><trkpt lat="45.7116913" lon="9.0789316"><ele>310.6</ele><time>2026-04-22T08:42:52.997Z</time></trkpt><trkpt lat="45.7115987" lon="9.078945"><ele>310.4</ele><time>2026-04-22T08:42:53.998Z</time></trkpt><trkpt lat="45.7115046" lon="9.0789571"><ele>310.2</ele><time>2026-04-22T08:42:54.998Z</time></trkpt><trkpt lat="45.7114111" lon="9.0789674"><ele>310.0</ele><time>2026-04-22T08:42:55.998Z</time></trkpt><trkpt lat="45.7113173" lon="9.0789836"><ele>310.0</ele><time>2026-04-22T08:42:56.997Z</time></trkpt><trkpt lat="45.7112247" lon="9.0790004"><ele>310.0</ele><time>2026-04-22T08:42:57.998Z</time></trkpt><trkpt lat="45.711133" lon="9.0790159"><ele>310.0</ele><time>2026-04-22T08:42:58.998Z</time></trkpt><trkpt lat="45.7110451" lon="9.0790283"><ele>310.0</ele><time>2026-04-22T08:42:59.998Z</time></trkpt><trkpt lat="45.710959" lon="9.0790388"><ele>310.0</ele><time>2026-04-22T08:43:00.998Z</time></trkpt><trkpt lat="45.7108758" lon="9.0790488"><ele>310.0</ele><time>2026-04-22T08:43:01.999Z</time></trkpt><trkpt lat="45.7107978" lon="9.0790553"><ele>310.0</ele><time>2026-04-22T08:43:02.999Z</time></trkpt><trkpt lat="45.7107266" lon="9.0790611"><ele>310.0</ele><time>2026-04-22T08:43:03.997Z</time></trkpt><trkpt lat="45.710613" lon="9.0790631"><ele>310.0</ele><time>2026-04-22T08:43:05.998Z</time></trkpt><trkpt lat="45.7105263" lon="9.0790589"><ele>310.0</ele><time>2026-04-22T08:43:07.998Z</time></trkpt><trkpt lat="45.7104187" lon="9.0790554"><ele>310.0</ele><time>2026-04-22T08:43:09.997Z</time></trkpt><trkpt lat="45.7102865" lon="9.0790483"><ele>310.16666666666663</ele><time>2026-04-22T08:43:11.999Z</time></trkpt><trkpt lat="45.7102087" lon="9.0790396"><ele>310.3333333333333</ele><time>2026-04-22T08:43:12.998Z</time></trkpt><trkpt lat="45.7101267" lon="9.0790348"><ele>310.5</ele><time>2026-04-22T08:43:13.998Z</time></trkpt><trkpt lat="45.7100413" lon="9.0790308"><ele>310.6666666666667</ele><time>2026-04-22T08:43:14.998Z</time></trkpt><trkpt lat="45.7099507" lon="9.0790265"><ele>310.83333333333337</ele><time>2026-04-22T08:43:15.998Z</time></trkpt><trkpt lat="45.7098568" lon="9.0790167"><ele>311.0</ele><time>2026-04-22T08:43:16.999Z</time></trkpt><trkpt lat="45.7097594" lon="9.0790136"><ele>311.0</ele><time>2026-04-22T08:43:17.999Z</time></trkpt><trkpt lat="45.7096581" lon="9.0790048"><ele>311.0</ele><time>2026-04-22T08:43:18.998Z</time></trkpt><trkpt lat="45.7095574" lon="9.0789949"><ele>311.0</ele><time>2026-04-22T08:43:19.998Z</time></trkpt><trkpt lat="45.7094584" lon="9.0789919"><ele>311.0</ele><time>2026-04-22T08:43:20.998Z</time></trkpt><trkpt lat="45.7093662" lon="9.0789842"><ele>311.0</ele><time>2026-04-22T08:43:21.998Z</time></trkpt><trkpt lat="45.7092826" lon="9.0789786"><ele>310.2</ele><time>2026-04-22T08:43:22.998Z</time></trkpt><trkpt lat="45.7092075" lon="9.0789783"><ele>309.40000000000003</ele><time>2026-04-22T08:43:23.998Z</time></trkpt><trkpt lat="45.7091031" lon="9.0789727"><ele>308.6</ele><time>2026-04-22T08:43:25.999Z</time></trkpt><trkpt lat="45.7090207" lon="9.0789644"><ele>307.8</ele><time>2026-04-22T08:43:28.999Z</time></trkpt><trkpt lat="45.7089426" lon="9.0789585"><ele>307.0</ele><time>2026-04-22T08:43:30.998Z</time></trkpt><trkpt lat="45.7088317" lon="9.0789578"><ele>307.0</ele><time>2026-04-22T08:43:32.998Z</time></trkpt><trkpt lat="45.7087662" lon="9.0789596"><ele>307.0</ele><time>2026-04-22T08:43:33.999Z</time></trkpt><trkpt lat="45.7086931" lon="9.078964"><ele>307.0</ele><time>2026-04-22T08:43:34.999Z</time></trkpt><trkpt lat="45.708618" lon="9.0789725"><ele>307.0</ele><time>2026-04-22T08:43:35.998Z</time></trkpt><trkpt lat="45.7085337" lon="9.0789857"><ele>307.0</ele><time>2026-04-22T08:43:36.997Z</time></trkpt><trkpt lat="45.7084463" lon="9.0790066"><ele>307.0</ele><time>2026-04-22T08:43:37.999Z</time></trkpt><trkpt lat="45.7083579" lon="9.0790339"><ele>306.8333333333333</ele><time>2026-04-22T08:43:38.998Z</time></trkpt><trkpt lat="45.7082739" lon="9.0790617"><ele>306.66666666666663</ele><time>2026-04-22T08:43:39.998Z</time></trkpt><trkpt lat="45.7081901" lon="9.0790957"><ele>306.5</ele><time>2026-04-22T08:43:40.999Z</time></trkpt><trkpt lat="45.7081095" lon="9.0791353"><ele>306.3333333333333</ele><time>2026-04-22T08:43:41.997Z</time></trkpt><trkpt lat="45.7080346" lon="9.079179"><ele>306.1666666666667</ele><time>2026-04-22T08:43:42.998Z</time></trkpt><trkpt lat="45.7079589" lon="9.0792295"><ele>306.0</ele><time>2026-04-22T08:43:43.998Z</time></trkpt><trkpt lat="45.7078843" lon="9.0792856"><ele>306.5</ele><time>2026-04-22T08:43:44.998Z</time></trkpt><trkpt lat="45.7078124" lon="9.0793425"><ele>307.0</ele><time>2026-04-22T08:43:45.998Z</time></trkpt><trkpt lat="45.7077419" lon="9.0794032"><ele>307.5</ele><time>2026-04-22T08:43:46.998Z</time></trkpt><trkpt lat="45.7076669" lon="9.0794608"><ele>308.0</ele><time>2026-04-22T08:43:47.999Z</time></trkpt><trkpt lat="45.7075903" lon="9.0795169"><ele>308.5</ele><time>2026-04-22T08:43:48.998Z</time></trkpt><trkpt lat="45.7075075" lon="9.0795705"><ele>309.0</ele><time>2026-04-22T08:43:49.998Z</time></trkpt><trkpt lat="45.7074244" lon="9.0796218"><ele>309.00000000000006</ele><time>2026-04-22T08:43:50.998Z</time></trkpt><trkpt lat="45.7073406" lon="9.0796743"><ele>309.0</ele><time>2026-04-22T08:43:51.998Z</time></trkpt><trkpt lat="45.7072614" lon="9.079722"><ele>309.0</ele><time>2026-04-22T08:43:52.997Z</time></trkpt><trkpt lat="45.7071911" lon="9.0797642"><ele>309.0</ele><time>2026-04-22T08:43:53.999Z</time></trkpt><trkpt lat="45.7071284" lon="9.0797993"><ele>309.0</ele><time>2026-04-22T08:43:54.998Z</time></trkpt><trkpt lat="45.7070697" lon="9.0798328"><ele>309.00000000000006</ele><time>2026-04-22T08:43:55.998Z</time></trkpt><trkpt lat="45.7070114" lon="9.0798719"><ele>309.0</ele><time>2026-04-22T08:43:56.998Z</time></trkpt><trkpt lat="45.7069521" lon="9.0799089"><ele>308.4</ele><time>2026-04-22T08:43:57.997Z</time></trkpt><trkpt lat="45.7068386" lon="9.0799662"><ele>307.79999999999995</ele><time>2026-04-22T08:43:59.997Z</time></trkpt><trkpt lat="45.7067131" lon="9.0800157"><ele>307.20000000000005</ele><time>2026-04-22T08:44:01.998Z</time></trkpt><trkpt lat="45.7066437" lon="9.0800333"><ele>306.6</ele><time>2026-04-22T08:44:02.998Z</time></trkpt><trkpt lat="45.7065694" lon="9.080043"><ele>306.0</ele><time>2026-04-22T08:44:03.999Z</time></trkpt><trkpt lat="45.7064921" lon="9.0800548"><ele>306.0</ele><time>2026-04-22T08:44:04.999Z</time></trkpt><trkpt lat="45.7064125" lon="9.0800612"><ele>306.0</ele><time>2026-04-22T08:44:05.999Z</time></trkpt><trkpt lat="45.7063379" lon="9.0800652"><ele>306.0</ele><time>2026-04-22T08:44:06.998Z</time></trkpt><trkpt lat="45.7062283" lon="9.0800674"><ele>306.0</ele><time>2026-04-22T08:44:08.998Z</time></trkpt><trkpt lat="45.7061379" lon="9.0800772"><ele>306.0</ele><time>2026-04-22T08:44:10.997Z</time></trkpt><trkpt lat="45.7060289" lon="9.0800912"><ele>305.5</ele><time>2026-04-22T08:44:12.999Z</time></trkpt><trkpt lat="45.7059201" lon="9.080103"><ele>305.0</ele><time>2026-04-22T08:44:14.999Z</time></trkpt><trkpt lat="45.7058372" lon="9.080105"><ele>304.5</ele><time>2026-04-22T08:44:16.998Z</time></trkpt><trkpt lat="45.705764" lon="9.0801174"><ele>304.0</ele><time>2026-04-22T08:44:19.999Z</time></trkpt><trkpt lat="45.7056958" lon="9.0801283"><ele>303.5</ele><time>2026-04-22T08:44:23.999Z</time></trkpt><trkpt lat="45.705631" lon="9.0801385"><ele>303.0</ele><time>2026-04-22T08:44:25.998Z</time></trkpt><trkpt lat="45.705526" lon="9.0801547"><ele>303.0</ele><time>2026-04-22T08:44:27.997Z</time></trkpt><trkpt lat="45.7054" lon="9.0801714"><ele>303.0</ele><time>2026-04-22T08:44:29.999Z</time></trkpt><trkpt lat="45.7053371" lon="9.0801849"><ele>303.0</ele><time>2026-04-22T08:44:30.998Z</time></trkpt><trkpt lat="45.7052689" lon="9.0801969"><ele>303.0</ele><time>2026-04-22T08:44:31.999Z</time></trkpt><trkpt lat="45.7051987" lon="9.0802118"><ele>303.0</ele><time>2026-04-22T08:44:32.998Z</time></trkpt><trkpt lat="45.7051271" lon="9.0802247"><ele>303.0</ele><time>2026-04-22T08:44:33.997Z</time></trkpt><trkpt lat="45.7050507" lon="9.0802274"><ele>302.6666666666667</ele><time>2026-04-22T08:44:34.997Z</time></trkpt><trkpt lat="45.7049788" lon="9.0802323"><ele>302.3333333333333</ele><time>2026-04-22T08:44:35.999Z</time></trkpt><trkpt lat="45.7049027" lon="9.0802377"><ele>302.0</ele><time>2026-04-22T08:44:36.998Z</time></trkpt><trkpt lat="45.7048309" lon="9.0802525"><ele>301.66666666666663</ele><time>2026-04-22T08:44:37.998Z</time></trkpt><trkpt lat="45.7047579" lon="9.0802667"><ele>301.3333333333333</ele><time>2026-04-22T08:44:38.997Z</time></trkpt><trkpt lat="45.7046928" lon="9.0802799"><ele>301.0</ele><time>2026-04-22T08:44:39.999Z</time></trkpt><trkpt lat="45.7045787" lon="9.0803069"><ele>301.0</ele><time>2026-04-22T08:44:41.998Z</time></trkpt><trkpt lat="45.7044917" lon="9.0803222"><ele>301.0</ele><time>2026-04-22T08:44:43.998Z</time></trkpt><trkpt lat="45.7044151" lon="9.0803266"><ele>301.0</ele><time>2026-04-22T08:44:45.998Z</time></trkpt><trkpt lat="45.7043382" lon="9.0803112"><ele>301.0</ele><time>2026-04-22T08:44:47.999Z</time></trkpt><trkpt lat="45.7042691" lon="9.0802439"><ele>301.0</ele><time>2026-04-22T08:44:50.998Z</time></trkpt><trkpt lat="45.7042574" lon="9.0801505"><ele>301.0</ele><time>2026-04-22T08:44:52.998Z</time></trkpt><trkpt lat="45.704274" lon="9.0800316"><ele>300.8</ele><time>2026-04-22T08:44:54.998Z</time></trkpt><trkpt lat="45.7042664" lon="9.0798895"><ele>300.6</ele><time>2026-04-22T08:44:56.998Z</time></trkpt><trkpt lat="45.7042629" lon="9.0797281"><ele>300.4</ele><time>2026-04-22T08:44:58.998Z</time></trkpt><trkpt lat="45.7042651" lon="9.0795655"><ele>300.2</ele><time>2026-04-22T08:45:00.998Z</time></trkpt><trkpt lat="45.7042623" lon="9.0793906"><ele>300.0</ele><time>2026-04-22T08:45:02.997Z</time></trkpt><trkpt lat="45.7042623" lon="9.0792147"><ele>299.6</ele><time>2026-04-22T08:45:04.999Z</time></trkpt><trkpt lat="45.7042584" lon="9.0790588"><ele>299.2</ele><time>2026-04-22T08:45:06.999Z</time></trkpt><trkpt lat="45.7042617" lon="9.0789295"><ele>298.8</ele><time>2026-04-22T08:45:08.999Z</time></trkpt><trkpt lat="45.7042409" lon="9.0788179"><ele>298.4</ele><time>2026-04-22T08:45:11.999Z</time></trkpt><trkpt lat="45.7041643" lon="9.0787696"><ele>298.0</ele><time>2026-04-22T08:45:14.997Z</time></trkpt><trkpt lat="45.7040542" lon="9.0787604"><ele>298.0</ele><time>2026-04-22T08:45:16.998Z</time></trkpt><trkpt lat="45.7039862" lon="9.0787638"><ele>298.0</ele><time>2026-04-22T08:45:17.998Z</time></trkpt><trkpt lat="45.7039187" lon="9.0787696"><ele>298.0</ele><time>2026-04-22T08:45:18.998Z</time></trkpt><trkpt lat="45.7038487" lon="9.0787794"><ele>298.0</ele><time>2026-04-22T08:45:19.998Z</time></trkpt><trkpt lat="45.7037748" lon="9.0787887"><ele>298.0</ele><time>2026-04-22T08:45:20.999Z</time></trkpt><trkpt lat="45.703697" lon="9.0787928"><ele>298.0</ele><time>2026-04-22T08:45:21.998Z</time></trkpt><trkpt lat="45.7036137" lon="9.0788004"><ele>298.0</ele><time>2026-04-22T08:45:22.998Z</time></trkpt><trkpt lat="45.7035317" lon="9.078804"><ele>298.0</ele><time>2026-04-22T08:45:23.998Z</time></trkpt><trkpt lat="45.7034448" lon="9.0788107"><ele>298.0</ele><time>2026-04-22T08:45:24.999Z</time></trkpt><trkpt lat="45.7033566" lon="9.0788184"><ele>298.0</ele><time>2026-04-22T08:45:25.998Z</time></trkpt><trkpt lat="45.7032654" lon="9.078826"><ele>298.0</ele><time>2026-04-22T08:45:26.997Z</time></trkpt><trkpt lat="45.7031721" lon="9.078833"><ele>298.0</ele><time>2026-04-22T08:45:27.998Z</time></trkpt><trkpt lat="45.7030772" lon="9.0788361"><ele>298.0</ele><time>2026-04-22T08:45:28.998Z</time></trkpt><trkpt lat="45.702981" lon="9.0788396"><ele>298.0</ele><time>2026-04-22T08:45:29.998Z</time></trkpt><trkpt lat="45.702883" lon="9.0788477"><ele>298.0</ele><time>2026-04-22T08:45:30.999Z</time></trkpt><trkpt lat="45.7027842" lon="9.0788538"><ele>298.0</ele><time>2026-04-22T08:45:31.998Z</time></trkpt><trkpt lat="45.7026855" lon="9.0788625"><ele>298.0</ele><time>2026-04-22T08:45:32.998Z</time></trkpt><trkpt lat="45.702582" lon="9.0788687"><ele>298.0</ele><time>2026-04-22T08:45:33.998Z</time></trkpt><trkpt lat="45.7024827" lon="9.0788797"><ele>298.0</ele><time>2026-04-22T08:45:34.998Z</time></trkpt><trkpt lat="45.7023848" lon="9.0788894"><ele>298.0</ele><time>2026-04-22T08:45:35.999Z</time></trkpt><trkpt lat="45.7022901" lon="9.0789004"><ele>298.0</ele><time>2026-04-22T08:45:36.999Z</time></trkpt><trkpt lat="45.7021998" lon="9.0789111"><ele>298.0</ele><time>2026-04-22T08:45:37.998Z</time></trkpt><trkpt lat="45.7021094" lon="9.0789241"><ele>298.0</ele><time>2026-04-22T08:45:38.999Z</time></trkpt><trkpt lat="45.7020216" lon="9.0789349"><ele>298.0</ele><time>2026-04-22T08:45:39.998Z</time></trkpt><trkpt lat="45.7019379" lon="9.0789454"><ele>298.0</ele><time>2026-04-22T08:45:40.998Z</time></trkpt><trkpt lat="45.7018619" lon="9.0789576"><ele>298.0</ele><time>2026-04-22T08:45:41.998Z</time></trkpt><trkpt lat="45.7017896" lon="9.0789656"><ele>298.0</ele><time>2026-04-22T08:45:42.999Z</time></trkpt><trkpt lat="45.7016794" lon="9.0789667"><ele>298.0</ele><time>2026-04-22T08:45:44.998Z</time></trkpt><trkpt lat="45.7016127" lon="9.0789631"><ele>298.5</ele><time>2026-04-22T08:45:46.998Z</time></trkpt><trkpt lat="45.701548" lon="9.0789181"><ele>299.0</ele><time>2026-04-22T08:45:49.998Z</time></trkpt><trkpt lat="45.7015131" lon="9.0788121"><ele>299.5</ele><time>2026-04-22T08:45:51.997Z</time></trkpt><trkpt lat="45.7014794" lon="9.078656"><ele>300.0</ele><time>2026-04-22T08:45:53.998Z</time></trkpt><trkpt lat="45.701458" lon="9.0785691"><ele>300.5</ele><time>2026-04-22T08:45:54.998Z</time></trkpt><trkpt lat="45.7014309" lon="9.0784642"><ele>301.0</ele><time>2026-04-22T08:45:55.998Z</time></trkpt><trkpt lat="45.7014029" lon="9.0783537"><ele>300.8</ele><time>2026-04-22T08:45:56.998Z</time></trkpt><trkpt lat="45.7013715" lon="9.0782415"><ele>300.6</ele><time>2026-04-22T08:45:57.998Z</time></trkpt><trkpt lat="45.7013437" lon="9.0781166"><ele>300.4</ele><time>2026-04-22T08:45:58.998Z</time></trkpt><trkpt lat="45.7013219" lon="9.0779912"><ele>300.2</ele><time>2026-04-22T08:45:59.998Z</time></trkpt><trkpt lat="45.7013008" lon="9.0778609"><ele>300.0</ele><time>2026-04-22T08:46:00.998Z</time></trkpt><trkpt lat="45.7012721" lon="9.0777348"><ele>300.0</ele><time>2026-04-22T08:46:01.999Z</time></trkpt><trkpt lat="45.7012502" lon="9.0776085"><ele>300.0</ele><time>2026-04-22T08:46:02.998Z</time></trkpt><trkpt lat="45.7012199" lon="9.0774853"><ele>300.0</ele><time>2026-04-22T08:46:03.999Z</time></trkpt><trkpt lat="45.701192" lon="9.0773628"><ele>300.0</ele><time>2026-04-22T08:46:04.998Z</time></trkpt><trkpt lat="45.7011673" lon="9.0772361"><ele>300.0</ele><time>2026-04-22T08:46:05.998Z</time></trkpt><trkpt lat="45.7011392" lon="9.0771081"><ele>300.4</ele><time>2026-04-22T08:46:06.999Z</time></trkpt><trkpt lat="45.7011079" lon="9.0769793"><ele>300.8</ele><time>2026-04-22T08:46:07.998Z</time></trkpt><trkpt lat="45.7010796" lon="9.076854"><ele>301.2</ele><time>2026-04-22T08:46:08.998Z</time></trkpt><trkpt lat="45.7010485" lon="9.0767247"><ele>301.6</ele><time>2026-04-22T08:46:09.998Z</time></trkpt><trkpt lat="45.7010127" lon="9.0765944"><ele>302.0</ele><time>2026-04-22T08:46:10.998Z</time></trkpt><trkpt lat="45.7009747" lon="9.0764652"><ele>302.4</ele><time>2026-04-22T08:46:11.998Z</time></trkpt><trkpt lat="45.7009324" lon="9.0763405"><ele>302.79999999999995</ele><time>2026-04-22T08:46:12.999Z</time></trkpt><trkpt lat="45.70088" lon="9.0762179"><ele>303.2</ele><time>2026-04-22T08:46:13.998Z</time></trkpt><trkpt lat="45.7008223" lon="9.0760985"><ele>303.59999999999997</ele><time>2026-04-22T08:46:14.999Z</time></trkpt><trkpt lat="45.700761" lon="9.0759799"><ele>304.0</ele><time>2026-04-22T08:46:15.997Z</time></trkpt><trkpt lat="45.7006988" lon="9.0758574"><ele>304.2</ele><time>2026-04-22T08:46:16.999Z</time></trkpt><trkpt lat="45.7006362" lon="9.0757334"><ele>304.4</ele><time>2026-04-22T08:46:17.999Z</time></trkpt><trkpt lat="45.7005713" lon="9.0756097"><ele>304.6</ele><time>2026-04-22T08:46:18.999Z</time></trkpt><trkpt lat="45.7005051" lon="9.0754866"><ele>304.8</ele><time>2026-04-22T08:46:19.999Z</time></trkpt><trkpt lat="45.7004381" lon="9.0753645"><ele>305.0</ele><time>2026-04-22T08:46:20.998Z</time></trkpt><trkpt lat="45.7003687" lon="9.0752443"><ele>305.0</ele><time>2026-04-22T08:46:21.998Z</time></trkpt><trkpt lat="45.7003007" lon="9.0751188"><ele>305.0</ele><time>2026-04-22T08:46:22.999Z</time></trkpt><trkpt lat="45.7002342" lon="9.0749907"><ele>305.0</ele><time>2026-04-22T08:46:23.998Z</time></trkpt><trkpt lat="45.7001677" lon="9.0748615"><ele>305.0</ele><time>2026-04-22T08:46:24.998Z</time></trkpt><trkpt lat="45.7000985" lon="9.0747301"><ele>305.0</ele><time>2026-04-22T08:46:25.999Z</time></trkpt><trkpt lat="45.7000279" lon="9.0746008"><ele>304.75</ele><time>2026-04-22T08:46:26.997Z</time></trkpt><trkpt lat="45.6999571" lon="9.0744694"><ele>304.5</ele><time>2026-04-22T08:46:27.998Z</time></trkpt><trkpt lat="45.6998869" lon="9.0743378"><ele>304.25</ele><time>2026-04-22T08:46:28.998Z</time></trkpt><trkpt lat="45.6998153" lon="9.074207"><ele>304.0</ele><time>2026-04-22T08:46:29.999Z</time></trkpt><trkpt lat="45.6997448" lon="9.0740738"><ele>304.0</ele><time>2026-04-22T08:46:30.998Z</time></trkpt><trkpt lat="45.6996776" lon="9.0739334"><ele>304.0</ele><time>2026-04-22T08:46:31.999Z</time></trkpt><trkpt lat="45.6996117" lon="9.0737902"><ele>304.0</ele><time>2026-04-22T08:46:32.997Z</time></trkpt><trkpt lat="45.699545" lon="9.0736409"><ele>304.0</ele><time>2026-04-22T08:46:33.998Z</time></trkpt><trkpt lat="45.6994788" lon="9.07349"><ele>303.25</ele><time>2026-04-22T08:46:34.999Z</time></trkpt><trkpt lat="45.6994125" lon="9.073334"><ele>302.5</ele><time>2026-04-22T08:46:35.999Z</time></trkpt><trkpt lat="45.6993472" lon="9.073182"><ele>301.75</ele><time>2026-04-22T08:46:36.999Z</time></trkpt><trkpt lat="45.6992827" lon="9.0730328"><ele>301.0</ele><time>2026-04-22T08:46:37.999Z</time></trkpt><trkpt lat="45.6992211" lon="9.072889"><ele>300.25</ele><time>2026-04-22T08:46:38.999Z</time></trkpt><trkpt lat="45.6991621" lon="9.0727448"><ele>299.5</ele><time>2026-04-22T08:46:39.998Z</time></trkpt><trkpt lat="45.6991027" lon="9.072605"><ele>298.75</ele><time>2026-04-22T08:46:40.998Z</time></trkpt><trkpt lat="45.6990462" lon="9.0724698"><ele>298.0</ele><time>2026-04-22T08:46:41.998Z</time></trkpt><trkpt lat="45.6989911" lon="9.0723359"><ele>297.8</ele><time>2026-04-22T08:46:42.998Z</time></trkpt><trkpt lat="45.6989346" lon="9.0722041"><ele>297.6</ele><time>2026-04-22T08:46:43.998Z</time></trkpt><trkpt lat="45.6988807" lon="9.0720761"><ele>297.4</ele><time>2026-04-22T08:46:44.998Z</time></trkpt><trkpt lat="45.6988294" lon="9.0719524"><ele>297.2</ele><time>2026-04-22T08:46:45.998Z</time></trkpt><trkpt lat="45.6987805" lon="9.0718347"><ele>297.0</ele><time>2026-04-22T08:46:46.998Z</time></trkpt><trkpt lat="45.6987382" lon="9.0717307"><ele>297.0</ele><time>2026-04-22T08:46:47.997Z</time></trkpt><trkpt lat="45.6987058" lon="9.0716502"><ele>297.0</ele><time>2026-04-22T08:46:48.997Z</time></trkpt><trkpt lat="45.6986543" lon="9.0715197"><ele>297.0</ele><time>2026-04-22T08:46:50.999Z</time></trkpt><trkpt lat="45.6985983" lon="9.0713801"><ele>297.0</ele><time>2026-04-22T08:46:52.999Z</time></trkpt><trkpt lat="45.6985631" lon="9.0712967"><ele>297.0</ele><time>2026-04-22T08:46:53.999Z</time></trkpt><trkpt lat="45.6985231" lon="9.0712056"><ele>297.0</ele><time>2026-04-22T08:46:54.999Z</time></trkpt><trkpt lat="45.6984798" lon="9.0711038"><ele>295.8</ele><time>2026-04-22T08:46:55.998Z</time></trkpt><trkpt lat="45.6984333" lon="9.0709918"><ele>294.6</ele><time>2026-04-22T08:46:56.998Z</time></trkpt><trkpt lat="45.698386" lon="9.0708673"><ele>293.40000000000003</ele><time>2026-04-22T08:46:57.998Z</time></trkpt><trkpt lat="45.6983392" lon="9.0707429"><ele>292.2</ele><time>2026-04-22T08:46:58.999Z</time></trkpt><trkpt lat="45.6982874" lon="9.0706139"><ele>291.0</ele><time>2026-04-22T08:46:59.998Z</time></trkpt><trkpt lat="45.6982386" lon="9.0704905"><ele>290.40000000000003</ele><time>2026-04-22T08:47:00.998Z</time></trkpt><trkpt lat="45.6981882" lon="9.0703698"><ele>289.8</ele><time>2026-04-22T08:47:01.998Z</time></trkpt><trkpt lat="45.6981395" lon="9.0702499"><ele>289.20000000000005</ele><time>2026-04-22T08:47:02.999Z</time></trkpt><trkpt lat="45.6980915" lon="9.0701273"><ele>288.6</ele><time>2026-04-22T08:47:03.998Z</time></trkpt><trkpt lat="45.6980431" lon="9.0700156"><ele>288.0</ele><time>2026-04-22T08:47:04.998Z</time></trkpt><trkpt lat="45.6979949" lon="9.0699138"><ele>286.8333333333333</ele><time>2026-04-22T08:47:05.998Z</time></trkpt><trkpt lat="45.6979487" lon="9.0698238"><ele>285.6666666666667</ele><time>2026-04-22T08:47:06.998Z</time></trkpt><trkpt lat="45.6979067" lon="9.069747"><ele>284.5</ele><time>2026-04-22T08:47:07.998Z</time></trkpt><trkpt lat="45.6978204" lon="9.0696438"><ele>283.33333333333337</ele><time>2026-04-22T08:47:09.998Z</time></trkpt><trkpt lat="45.6977342" lon="9.0696336"><ele>282.1666666666667</ele><time>2026-04-22T08:47:11.998Z</time></trkpt><trkpt lat="45.6976535" lon="9.0697087"><ele>281.0</ele><time>2026-04-22T08:47:13.998Z</time></trkpt><trkpt lat="45.697555" lon="9.069815"><ele>280.83333333333337</ele><time>2026-04-22T08:47:15.998Z</time></trkpt><trkpt lat="45.6974537" lon="9.0698825"><ele>280.6666666666667</ele><time>2026-04-22T08:47:17.998Z</time></trkpt><trkpt lat="45.6973439" lon="9.0699128"><ele>280.5</ele><time>2026-04-22T08:47:19.999Z</time></trkpt><trkpt lat="45.6972787" lon="9.0699264"><ele>280.3333333333333</ele><time>2026-04-22T08:47:20.997Z</time></trkpt><trkpt lat="45.6972112" lon="9.0699381"><ele>280.16666666666663</ele><time>2026-04-22T08:47:21.998Z</time></trkpt><trkpt lat="45.6971392" lon="9.0699503"><ele>280.0</ele><time>2026-04-22T08:47:22.999Z</time></trkpt><trkpt lat="45.6970626" lon="9.0699637"><ele>280.3333333333333</ele><time>2026-04-22T08:47:23.999Z</time></trkpt><trkpt lat="45.6969847" lon="9.0699792"><ele>280.66666666666663</ele><time>2026-04-22T08:47:24.997Z</time></trkpt><trkpt lat="45.6969025" lon="9.0699956"><ele>281.0</ele><time>2026-04-22T08:47:25.999Z</time></trkpt><trkpt lat="45.6968161" lon="9.0700096"><ele>281.3333333333333</ele><time>2026-04-22T08:47:26.998Z</time></trkpt><trkpt lat="45.6967278" lon="9.0700291"><ele>281.6666666666667</ele><time>2026-04-22T08:47:27.999Z</time></trkpt><trkpt lat="45.6966393" lon="9.070054"><ele>282.0</ele><time>2026-04-22T08:47:28.998Z</time></trkpt><trkpt lat="45.6965453" lon="9.0700778"><ele>282.0</ele><time>2026-04-22T08:47:29.997Z</time></trkpt><trkpt lat="45.6964501" lon="9.0701064"><ele>282.0</ele><time>2026-04-22T08:47:30.997Z</time></trkpt><trkpt lat="45.6963547" lon="9.0701342"><ele>282.0</ele><time>2026-04-22T08:47:31.999Z</time></trkpt><trkpt lat="45.6962575" lon="9.0701644"><ele>282.0</ele><time>2026-04-22T08:47:32.999Z</time></trkpt><trkpt lat="45.6961604" lon="9.0701973"><ele>282.0</ele><time>2026-04-22T08:47:33.997Z</time></trkpt><trkpt lat="45.6960667" lon="9.0702292"><ele>282.0</ele><time>2026-04-22T08:47:34.998Z</time></trkpt><trkpt lat="45.6959766" lon="9.0702627"><ele>282.0</ele><time>2026-04-22T08:47:35.999Z</time></trkpt><trkpt lat="45.6958897" lon="9.070296"><ele>282.0</ele><time>2026-04-22T08:47:36.998Z</time></trkpt><trkpt lat="45.6958038" lon="9.0703285"><ele>282.0</ele><time>2026-04-22T08:47:37.998Z</time></trkpt><trkpt lat="45.6957423" lon="9.07035"><ele>282.0</ele><time>2026-04-22T08:47:38.999Z</time></trkpt><trkpt lat="45.6956457" lon="9.0703825"><ele>282.0</ele><time>2026-04-22T08:47:40.998Z</time></trkpt><trkpt lat="45.695571" lon="9.0704103"><ele>282.0</ele><time>2026-04-22T08:47:42.998Z</time></trkpt><trkpt lat="45.6955027" lon="9.0704339"><ele>282.0</ele><time>2026-04-22T08:47:44.999Z</time></trkpt><trkpt lat="45.6954164" lon="9.0704687"><ele>282.0</ele><time>2026-04-22T08:47:46.999Z</time></trkpt><trkpt lat="45.6953092" lon="9.070505"><ele>282.0</ele><time>2026-04-22T08:47:48.998Z</time></trkpt><trkpt lat="45.6952477" lon="9.070529"><ele>282.0</ele><time>2026-04-22T08:47:49.998Z</time></trkpt><trkpt lat="45.6951822" lon="9.0705544"><ele>282.0</ele><time>2026-04-22T08:47:50.999Z</time></trkpt><trkpt lat="45.6951112" lon="9.0705825"><ele>281.8333333333333</ele><time>2026-04-22T08:47:51.999Z</time></trkpt><trkpt lat="45.6950377" lon="9.0706126"><ele>281.6666666666667</ele><time>2026-04-22T08:47:52.998Z</time></trkpt><trkpt lat="45.6949618" lon="9.07064"><ele>281.5</ele><time>2026-04-22T08:47:53.998Z</time></trkpt><trkpt lat="45.6948822" lon="9.0706701"><ele>281.33333333333337</ele><time>2026-04-22T08:47:54.998Z</time></trkpt><trkpt lat="45.6948045" lon="9.0707014"><ele>281.1666666666667</ele><time>2026-04-22T08:47:55.999Z</time></trkpt><trkpt lat="45.6947305" lon="9.0707294"><ele>281.0</ele><time>2026-04-22T08:47:56.997Z</time></trkpt><trkpt lat="45.6946605" lon="9.0707529"><ele>281.0</ele><time>2026-04-22T08:47:57.998Z</time></trkpt><trkpt lat="45.6945535" lon="9.0707865"><ele>281.0</ele><time>2026-04-22T08:47:59.998Z</time></trkpt><trkpt lat="45.6944787" lon="9.0708114"><ele>281.0</ele><time>2026-04-22T08:48:02.997Z</time></trkpt><trkpt lat="45.6944114" lon="9.070827"><ele>281.0</ele><time>2026-04-22T08:48:11.999Z</time></trkpt><trkpt lat="45.694349" lon="9.07085"><ele>281.0</ele><time>2026-04-22T08:48:13.999Z</time></trkpt><trkpt lat="45.6942725" lon="9.0708592"><ele>281.0</ele><time>2026-04-22T08:48:15.998Z</time></trkpt><trkpt lat="45.694195" lon="9.070789"><ele>280.6</ele><time>2026-04-22T08:48:17.997Z</time></trkpt><trkpt lat="45.6941401" lon="9.070623"><ele>280.20000000000005</ele><time>2026-04-22T08:48:19.998Z</time></trkpt><trkpt lat="45.6941225" lon="9.070513"><ele>279.79999999999995</ele><time>2026-04-22T08:48:20.999Z</time></trkpt><trkpt lat="45.6941066" lon="9.0703881"><ele>279.4</ele><time>2026-04-22T08:48:21.999Z</time></trkpt><trkpt lat="45.6940879" lon="9.0702506"><ele>279.0</ele><time>2026-04-22T08:48:22.999Z</time></trkpt><trkpt lat="45.694064" lon="9.0701001"><ele>279.0</ele><time>2026-04-22T08:48:23.998Z</time></trkpt><trkpt lat="45.6940328" lon="9.0699386"><ele>279.0</ele><time>2026-04-22T08:48:24.999Z</time></trkpt><trkpt lat="45.693995" lon="9.0697668"><ele>279.0</ele><time>2026-04-22T08:48:25.998Z</time></trkpt><trkpt lat="45.6939527" lon="9.0695833"><ele>279.0</ele><time>2026-04-22T08:48:26.998Z</time></trkpt><trkpt lat="45.6939034" lon="9.0693924"><ele>279.0</ele><time>2026-04-22T08:48:27.999Z</time></trkpt><trkpt lat="45.6938517" lon="9.0691924"><ele>279.0</ele><time>2026-04-22T08:48:28.999Z</time></trkpt><trkpt lat="45.6937875" lon="9.0689811"><ele>279.0</ele><time>2026-04-22T08:48:29.999Z</time></trkpt><trkpt lat="45.6937153" lon="9.0687634"><ele>278.3333333333333</ele><time>2026-04-22T08:48:30.999Z</time></trkpt><trkpt lat="45.6936399" lon="9.0685487"><ele>277.66666666666663</ele><time>2026-04-22T08:48:31.999Z</time></trkpt><trkpt lat="45.6935663" lon="9.0683417"><ele>277.0</ele><time>2026-04-22T08:48:32.998Z</time></trkpt><trkpt lat="45.6934971" lon="9.0681514"><ele>276.6</ele><time>2026-04-22T08:48:33.997Z</time></trkpt><trkpt lat="45.6934357" lon="9.0679761"><ele>276.2</ele><time>2026-04-22T08:48:34.999Z</time></trkpt><trkpt lat="45.6933847" lon="9.0678189"><ele>275.8</ele><time>2026-04-22T08:48:35.998Z</time></trkpt><trkpt lat="45.69334" lon="9.0676879"><ele>275.4</ele><time>2026-04-22T08:48:36.998Z</time></trkpt><trkpt lat="45.6933028" lon="9.0675787"><ele>275.0</ele><time>2026-04-22T08:48:37.998Z</time></trkpt><trkpt lat="45.6932701" lon="9.0674836"><ele>274.83333333333337</ele><time>2026-04-22T08:48:38.998Z</time></trkpt><trkpt lat="45.6932425" lon="9.0674006"><ele>274.6666666666667</ele><time>2026-04-22T08:48:39.999Z</time></trkpt><trkpt lat="45.6931951" lon="9.0672357"><ele>274.5</ele><time>2026-04-22T08:48:41.999Z</time></trkpt><trkpt lat="45.693171" lon="9.0671453"><ele>274.3333333333333</ele><time>2026-04-22T08:48:42.998Z</time></trkpt><trkpt lat="45.6931519" lon="9.0670549"><ele>274.16666666666663</ele><time>2026-04-22T08:48:43.998Z</time></trkpt><trkpt lat="45.6931381" lon="9.0669576"><ele>274.0</ele><time>2026-04-22T08:48:44.999Z</time></trkpt><trkpt lat="45.6931335" lon="9.0668548"><ele>274.0</ele><time>2026-04-22T08:48:45.998Z</time></trkpt><trkpt lat="45.6931421" lon="9.0667432"><ele>274.0</ele><time>2026-04-22T08:48:46.998Z</time></trkpt><trkpt lat="45.6931545" lon="9.0666331"><ele>274.0</ele><time>2026-04-22T08:48:47.998Z</time></trkpt><trkpt lat="45.6931587" lon="9.0665273"><ele>274.0</ele><time>2026-04-22T08:48:48.999Z</time></trkpt><trkpt lat="45.6931493" lon="9.0664287"><ele>274.0</ele><time>2026-04-22T08:48:49.999Z</time></trkpt><trkpt lat="45.6931261" lon="9.0663443"><ele>274.0</ele><time>2026-04-22T08:48:50.997Z</time></trkpt><trkpt lat="45.6930407" lon="9.0662228"><ele>274.16666666666663</ele><time>2026-04-22T08:48:52.997Z</time></trkpt><trkpt lat="45.6929806" lon="9.0661871"><ele>274.3333333333333</ele><time>2026-04-22T08:48:53.998Z</time></trkpt><trkpt lat="45.6929152" lon="9.0661537"><ele>274.5</ele><time>2026-04-22T08:48:54.998Z</time></trkpt><trkpt lat="45.6928523" lon="9.0661022"><ele>274.6666666666667</ele><time>2026-04-22T08:48:55.998Z</time></trkpt><trkpt lat="45.692795" lon="9.0660296"><ele>274.83333333333337</ele><time>2026-04-22T08:48:56.999Z</time></trkpt><trkpt lat="45.6927436" lon="9.0659326"><ele>275.0</ele><time>2026-04-22T08:48:57.999Z</time></trkpt><trkpt lat="45.6926977" lon="9.0658159"><ele>275.75</ele><time>2026-04-22T08:48:58.997Z</time></trkpt><trkpt lat="45.6926507" lon="9.0656852"><ele>276.5</ele><time>2026-04-22T08:48:59.999Z</time></trkpt><trkpt lat="45.6925999" lon="9.0655434"><ele>277.25</ele><time>2026-04-22T08:49:00.999Z</time></trkpt><trkpt lat="45.6925474" lon="9.0653923"><ele>278.0</ele><time>2026-04-22T08:49:01.999Z</time></trkpt><trkpt lat="45.6924942" lon="9.0652326"><ele>278.0</ele><time>2026-04-22T08:49:02.998Z</time></trkpt><trkpt lat="45.6924371" lon="9.0650677"><ele>278.0</ele><time>2026-04-22T08:49:03.998Z</time></trkpt><trkpt lat="45.6923755" lon="9.0648976"><ele>278.0</ele><time>2026-04-22T08:49:04.997Z</time></trkpt><trkpt lat="45.6923126" lon="9.0647257"><ele>278.0</ele><time>2026-04-22T08:49:05.998Z</time></trkpt><trkpt lat="45.6922488" lon="9.0645528"><ele>278.25</ele><time>2026-04-22T08:49:06.997Z</time></trkpt><trkpt lat="45.6921866" lon="9.0643796"><ele>278.5</ele><time>2026-04-22T08:49:07.999Z</time></trkpt><trkpt lat="45.6921241" lon="9.0642067"><ele>278.75</ele><time>2026-04-22T08:49:08.998Z</time></trkpt><trkpt lat="45.6920624" lon="9.0640324"><ele>279.0</ele><time>2026-04-22T08:49:09.999Z</time></trkpt><trkpt lat="45.6920009" lon="9.063859"><ele>279.0</ele><time>2026-04-22T08:49:10.999Z</time></trkpt><trkpt lat="45.691939" lon="9.0636864"><ele>279.0</ele><time>2026-04-22T08:49:11.998Z</time></trkpt><trkpt lat="45.691878" lon="9.0635133"><ele>279.0</ele><time>2026-04-22T08:49:12.997Z</time></trkpt><trkpt lat="45.6918179" lon="9.0633404"><ele>279.0</ele><time>2026-04-22T08:49:13.999Z</time></trkpt><trkpt lat="45.691759" lon="9.0631656"><ele>278.5</ele><time>2026-04-22T08:49:14.998Z</time></trkpt><trkpt lat="45.6916973" lon="9.0629927"><ele>278.0</ele><time>2026-04-22T08:49:15.999Z</time></trkpt><trkpt lat="45.6916375" lon="9.0628174"><ele>277.5</ele><time>2026-04-22T08:49:16.998Z</time></trkpt><trkpt lat="45.6915772" lon="9.0626427"><ele>277.0</ele><time>2026-04-22T08:49:17.999Z</time></trkpt><trkpt lat="45.6915162" lon="9.0624695"><ele>277.25</ele><time>2026-04-22T08:49:18.998Z</time></trkpt><trkpt lat="45.6914546" lon="9.0622962"><ele>277.5</ele><time>2026-04-22T08:49:19.998Z</time></trkpt><trkpt lat="45.6913941" lon="9.0621223"><ele>277.75</ele><time>2026-04-22T08:49:20.999Z</time></trkpt><trkpt lat="45.6913346" lon="9.0619477"><ele>278.0</ele><time>2026-04-22T08:49:21.998Z</time></trkpt><trkpt lat="45.6912757" lon="9.0617732"><ele>278.25</ele><time>2026-04-22T08:49:22.999Z</time></trkpt><trkpt lat="45.6912172" lon="9.0615971"><ele>278.5</ele><time>2026-04-22T08:49:23.998Z</time></trkpt><trkpt lat="45.6911564" lon="9.0614222"><ele>278.75</ele><time>2026-04-22T08:49:24.998Z</time></trkpt><trkpt lat="45.6910961" lon="9.0612464"><ele>279.0</ele><time>2026-04-22T08:49:25.999Z</time></trkpt><trkpt lat="45.691036" lon="9.0610702"><ele>278.5</ele><time>2026-04-22T08:49:26.998Z</time></trkpt><trkpt lat="45.690975" lon="9.0608929"><ele>278.0</ele><time>2026-04-22T08:49:27.998Z</time></trkpt><trkpt lat="45.6909147" lon="9.0607162"><ele>277.5</ele><time>2026-04-22T08:49:28.998Z</time></trkpt><trkpt lat="45.690855" lon="9.0605416"><ele>277.0</ele><time>2026-04-22T08:49:29.998Z</time></trkpt><trkpt lat="45.6907988" lon="9.0603689"><ele>276.75</ele><time>2026-04-22T08:49:30.998Z</time></trkpt><trkpt lat="45.6907493" lon="9.0601978"><ele>276.5</ele><time>2026-04-22T08:49:31.997Z</time></trkpt><trkpt lat="45.6907067" lon="9.0600251"><ele>276.25</ele><time>2026-04-22T08:49:32.998Z</time></trkpt><trkpt lat="45.6906724" lon="9.0598501"><ele>276.0</ele><time>2026-04-22T08:49:33.997Z</time></trkpt><trkpt lat="45.6906465" lon="9.0596748"><ele>276.0</ele><time>2026-04-22T08:49:34.998Z</time></trkpt><trkpt lat="45.6906313" lon="9.0595008"><ele>276.0</ele><time>2026-04-22T08:49:35.998Z</time></trkpt><trkpt lat="45.6906286" lon="9.0593282"><ele>276.0</ele><time>2026-04-22T08:49:36.998Z</time></trkpt><trkpt lat="45.6906353" lon="9.0591572"><ele>276.0</ele><time>2026-04-22T08:49:37.997Z</time></trkpt><trkpt lat="45.6906482" lon="9.0589864"><ele>276.0</ele><time>2026-04-22T08:49:38.998Z</time></trkpt><trkpt lat="45.6906755" lon="9.0588191"><ele>276.0</ele><time>2026-04-22T08:49:39.999Z</time></trkpt><trkpt lat="45.6907061" lon="9.0586629"><ele>276.0</ele><time>2026-04-22T08:49:40.999Z</time></trkpt><trkpt lat="45.6907407" lon="9.0585188"><ele>276.0</ele><time>2026-04-22T08:49:41.998Z</time></trkpt><trkpt lat="45.6907788" lon="9.0583907"><ele>276.0</ele><time>2026-04-22T08:49:42.999Z</time></trkpt><trkpt lat="45.6908214" lon="9.0582772"><ele>276.0</ele><time>2026-04-22T08:49:43.998Z</time></trkpt><trkpt lat="45.6908642" lon="9.0581729"><ele>276.0</ele><time>2026-04-22T08:49:44.998Z</time></trkpt><trkpt lat="45.6909118" lon="9.0580771"><ele>276.0</ele><time>2026-04-22T08:49:45.998Z</time></trkpt><trkpt lat="45.6909613" lon="9.0579777"><ele>276.0</ele><time>2026-04-22T08:49:46.997Z</time></trkpt><trkpt lat="45.6910007" lon="9.0578728"><ele>276.0</ele><time>2026-04-22T08:49:47.999Z</time></trkpt><trkpt lat="45.6910321" lon="9.05776"><ele>276.0</ele><time>2026-04-22T08:49:48.998Z</time></trkpt><trkpt lat="45.691049" lon="9.0576371"><ele>276.0</ele><time>2026-04-22T08:49:49.998Z</time></trkpt><trkpt lat="45.6910625" lon="9.0575043"><ele>276.0</ele><time>2026-04-22T08:49:50.999Z</time></trkpt><trkpt lat="45.6910788" lon="9.0573649"><ele>276.0</ele><time>2026-04-22T08:49:51.998Z</time></trkpt><trkpt lat="45.6911045" lon="9.0572231"><ele>276.0</ele><time>2026-04-22T08:49:52.998Z</time></trkpt><trkpt lat="45.6911348" lon="9.0570785"><ele>276.0</ele><time>2026-04-22T08:49:53.999Z</time></trkpt><trkpt lat="45.6911733" lon="9.05693"><ele>276.0</ele><time>2026-04-22T08:49:54.997Z</time></trkpt><trkpt lat="45.6912147" lon="9.0567767"><ele>276.0</ele><time>2026-04-22T08:49:55.998Z</time></trkpt><trkpt lat="45.6912577" lon="9.0566196"><ele>276.0</ele><time>2026-04-22T08:49:56.998Z</time></trkpt><trkpt lat="45.6913037" lon="9.0564592"><ele>276.0</ele><time>2026-04-22T08:49:57.998Z</time></trkpt><trkpt lat="45.6913504" lon="9.0562963"><ele>276.25</ele><time>2026-04-22T08:49:58.999Z</time></trkpt><trkpt lat="45.6913993" lon="9.0561309"><ele>276.5</ele><time>2026-04-22T08:49:59.999Z</time></trkpt><trkpt lat="45.691449" lon="9.0559631"><ele>276.75</ele><time>2026-04-22T08:50:00.998Z</time></trkpt><trkpt lat="45.6914965" lon="9.0557947"><ele>277.0</ele><time>2026-04-22T08:50:01.998Z</time></trkpt><trkpt lat="45.6915388" lon="9.0556256"><ele>276.75</ele><time>2026-04-22T08:50:02.998Z</time></trkpt><trkpt lat="45.6915736" lon="9.0554561"><ele>276.5</ele><time>2026-04-22T08:50:03.999Z</time></trkpt><trkpt lat="45.6915995" lon="9.055287"><ele>276.25</ele><time>2026-04-22T08:50:04.997Z</time></trkpt><trkpt lat="45.6916169" lon="9.055114"><ele>276.0</ele><time>2026-04-22T08:50:05.998Z</time></trkpt><trkpt lat="45.6916269" lon="9.0549429"><ele>276.0</ele><time>2026-04-22T08:50:06.998Z</time></trkpt><trkpt lat="45.6916284" lon="9.0547749"><ele>276.0</ele><time>2026-04-22T08:50:07.999Z</time></trkpt><trkpt lat="45.6916258" lon="9.0546181"><ele>276.0</ele><time>2026-04-22T08:50:08.998Z</time></trkpt><trkpt lat="45.6916258" lon="9.0544713"><ele>276.0</ele><time>2026-04-22T08:50:09.999Z</time></trkpt><trkpt lat="45.6916317" lon="9.0543355"><ele>276.0</ele><time>2026-04-22T08:50:10.999Z</time></trkpt><trkpt lat="45.6916406" lon="9.0542099"><ele>275.5</ele><time>2026-04-22T08:50:11.998Z</time></trkpt><trkpt lat="45.6916449" lon="9.0540893"><ele>275.0</ele><time>2026-04-22T08:50:12.997Z</time></trkpt><trkpt lat="45.6916377" lon="9.053975"><ele>274.5</ele><time>2026-04-22T08:50:13.997Z</time></trkpt><trkpt lat="45.6916169" lon="9.0538581"><ele>274.0</ele><time>2026-04-22T08:50:14.998Z</time></trkpt><trkpt lat="45.6915835" lon="9.0537396"><ele>273.5</ele><time>2026-04-22T08:50:15.998Z</time></trkpt><trkpt lat="45.6915484" lon="9.0536119"><ele>273.0</ele><time>2026-04-22T08:50:16.998Z</time></trkpt><trkpt lat="45.6915154" lon="9.053477"><ele>273.0</ele><time>2026-04-22T08:50:17.998Z</time></trkpt><trkpt lat="45.6914851" lon="9.0533293"><ele>273.0</ele><time>2026-04-22T08:50:18.999Z</time></trkpt><trkpt lat="45.6914556" lon="9.0531721"><ele>273.0</ele><time>2026-04-22T08:50:19.998Z</time></trkpt><trkpt lat="45.691426" lon="9.0530054"><ele>273.0</ele><time>2026-04-22T08:50:20.998Z</time></trkpt><trkpt lat="45.6913969" lon="9.0528286"><ele>273.0</ele><time>2026-04-22T08:50:21.999Z</time></trkpt><trkpt lat="45.6913661" lon="9.0526439"><ele>273.0</ele><time>2026-04-22T08:50:22.999Z</time></trkpt><trkpt lat="45.6913353" lon="9.0524504"><ele>273.0</ele><time>2026-04-22T08:50:23.998Z</time></trkpt><trkpt lat="45.691304" lon="9.0522514"><ele>273.0</ele><time>2026-04-22T08:50:24.998Z</time></trkpt><trkpt lat="45.6912716" lon="9.0520459"><ele>272.25</ele><time>2026-04-22T08:50:25.998Z</time></trkpt><trkpt lat="45.6912375" lon="9.0518397"><ele>271.5</ele><time>2026-04-22T08:50:26.999Z</time></trkpt><trkpt lat="45.6912054" lon="9.0516299"><ele>270.75</ele><time>2026-04-22T08:50:27.997Z</time></trkpt><trkpt lat="45.6911707" lon="9.0514191"><ele>270.0</ele><time>2026-04-22T08:50:28.997Z</time></trkpt><trkpt lat="45.6911353" lon="9.0512058"><ele>269.3333333333333</ele><time>2026-04-22T08:50:29.998Z</time></trkpt><trkpt lat="45.6911007" lon="9.0509917"><ele>268.66666666666663</ele><time>2026-04-22T08:50:30.998Z</time></trkpt><trkpt lat="45.6910672" lon="9.0507752"><ele>268.0</ele><time>2026-04-22T08:50:31.998Z</time></trkpt><trkpt lat="45.6910315" lon="9.0505586"><ele>265.66666666666663</ele><time>2026-04-22T08:50:32.998Z</time></trkpt><trkpt lat="45.6909959" lon="9.0503403"><ele>263.3333333333333</ele><time>2026-04-22T08:50:33.998Z</time></trkpt><trkpt lat="45.6909606" lon="9.0501193"><ele>261.0</ele><time>2026-04-22T08:50:34.998Z</time></trkpt><trkpt lat="45.6909273" lon="9.0498982"><ele>259.0</ele><time>2026-04-22T08:50:35.998Z</time></trkpt><trkpt lat="45.6908939" lon="9.0496769"><ele>257.0</ele><time>2026-04-22T08:50:36.998Z</time></trkpt><trkpt lat="45.6908608" lon="9.0494566"><ele>255.0</ele><time>2026-04-22T08:50:37.998Z</time></trkpt><trkpt lat="45.6908268" lon="9.0492393"><ele>255.33333333333331</ele><time>2026-04-22T08:50:38.998Z</time></trkpt><trkpt lat="45.6907935" lon="9.0490254"><ele>255.66666666666666</ele><time>2026-04-22T08:50:39.998Z</time></trkpt><trkpt lat="45.6907592" lon="9.0488147"><ele>256.0</ele><time>2026-04-22T08:50:40.999Z</time></trkpt><trkpt lat="45.6907275" lon="9.0486065"><ele>256.0</ele><time>2026-04-22T08:50:41.999Z</time></trkpt><trkpt lat="45.6906943" lon="9.0484026"><ele>256.0</ele><time>2026-04-22T08:50:42.999Z</time></trkpt><trkpt lat="45.6906615" lon="9.0482033"><ele>256.0</ele><time>2026-04-22T08:50:43.998Z</time></trkpt><trkpt lat="45.6906299" lon="9.0480069"><ele>256.0</ele><time>2026-04-22T08:50:44.998Z</time></trkpt><trkpt lat="45.6906063" lon="9.047811"><ele>256.75</ele><time>2026-04-22T08:50:45.999Z</time></trkpt><trkpt lat="45.6905904" lon="9.0476158"><ele>257.5</ele><time>2026-04-22T08:50:46.997Z</time></trkpt><trkpt lat="45.6905841" lon="9.0474209"><ele>258.25</ele><time>2026-04-22T08:50:47.999Z</time></trkpt><trkpt lat="45.6905874" lon="9.047227"><ele>259.0</ele><time>2026-04-22T08:50:48.999Z</time></trkpt><trkpt lat="45.6905979" lon="9.0470312"><ele>259.0</ele><time>2026-04-22T08:50:49.998Z</time></trkpt><trkpt lat="45.690623" lon="9.0468379"><ele>259.0</ele><time>2026-04-22T08:50:50.999Z</time></trkpt><trkpt lat="45.6906562" lon="9.0466463"><ele>259.0</ele><time>2026-04-22T08:50:51.999Z</time></trkpt><trkpt lat="45.6906932" lon="9.0464566"><ele>259.0</ele><time>2026-04-22T08:50:52.998Z</time></trkpt><trkpt lat="45.6907345" lon="9.0462707"><ele>259.75</ele><time>2026-04-22T08:50:53.998Z</time></trkpt><trkpt lat="45.6907766" lon="9.0460831"><ele>260.5</ele><time>2026-04-22T08:50:54.998Z</time></trkpt><trkpt lat="45.690819" lon="9.0458934"><ele>261.25</ele><time>2026-04-22T08:50:55.998Z</time></trkpt><trkpt lat="45.690861" lon="9.0457049"><ele>262.0</ele><time>2026-04-22T08:50:56.998Z</time></trkpt><trkpt lat="45.6909022" lon="9.045515"><ele>263.25</ele><time>2026-04-22T08:50:57.998Z</time></trkpt><trkpt lat="45.690943" lon="9.0453246"><ele>264.5</ele><time>2026-04-22T08:50:58.998Z</time></trkpt><trkpt lat="45.6909835" lon="9.0451343"><ele>265.75</ele><time>2026-04-22T08:50:59.998Z</time></trkpt><trkpt lat="45.6910232" lon="9.044944"><ele>267.0</ele><time>2026-04-22T08:51:00.998Z</time></trkpt><trkpt lat="45.6910637" lon="9.0447557"><ele>269.0</ele><time>2026-04-22T08:51:01.998Z</time></trkpt><trkpt lat="45.6911032" lon="9.0445663"><ele>271.0</ele><time>2026-04-22T08:51:02.998Z</time></trkpt><trkpt lat="45.6911445" lon="9.0443779"><ele>273.0</ele><time>2026-04-22T08:51:03.998Z</time></trkpt><trkpt lat="45.6911853" lon="9.0441884"><ele>275.0</ele><time>2026-04-22T08:51:04.999Z</time></trkpt><trkpt lat="45.6912271" lon="9.0439952"><ele>275.5</ele><time>2026-04-22T08:51:05.998Z</time></trkpt><trkpt lat="45.6912705" lon="9.0437985"><ele>276.0</ele><time>2026-04-22T08:51:06.998Z</time></trkpt><trkpt lat="45.6913131" lon="9.0435985"><ele>276.5</ele><time>2026-04-22T08:51:07.998Z</time></trkpt><trkpt lat="45.6913536" lon="9.0433963"><ele>277.0</ele><time>2026-04-22T08:51:08.998Z</time></trkpt><trkpt lat="45.6913896" lon="9.0431911"><ele>277.0</ele><time>2026-04-22T08:51:09.997Z</time></trkpt><trkpt lat="45.6914211" lon="9.0429893"><ele>277.0</ele><time>2026-04-22T08:51:10.998Z</time></trkpt><trkpt lat="45.6914461" lon="9.0427911"><ele>277.0</ele><time>2026-04-22T08:51:11.998Z</time></trkpt><trkpt lat="45.6914699" lon="9.0425994"><ele>277.0</ele><time>2026-04-22T08:51:12.998Z</time></trkpt><trkpt lat="45.6914926" lon="9.0424147"><ele>277.0</ele><time>2026-04-22T08:51:13.999Z</time></trkpt><trkpt lat="45.6915113" lon="9.0422345"><ele>277.0</ele><time>2026-04-22T08:51:14.998Z</time></trkpt><trkpt lat="45.6915288" lon="9.042057"><ele>277.0</ele><time>2026-04-22T08:51:15.997Z</time></trkpt><trkpt lat="45.6915464" lon="9.0418829"><ele>277.0</ele><time>2026-04-22T08:51:16.997Z</time></trkpt><trkpt lat="45.6915613" lon="9.0417136"><ele>277.0</ele><time>2026-04-22T08:51:17.997Z</time></trkpt><trkpt lat="45.6915761" lon="9.0415534"><ele>277.0</ele><time>2026-04-22T08:51:18.998Z</time></trkpt><trkpt lat="45.6915893" lon="9.0414053"><ele>277.0</ele><time>2026-04-22T08:51:19.999Z</time></trkpt><trkpt lat="45.6916029" lon="9.041263"><ele>277.0</ele><time>2026-04-22T08:51:20.997Z</time></trkpt><trkpt lat="45.6916168" lon="9.0411297"><ele>277.0</ele><time>2026-04-22T08:51:21.998Z</time></trkpt><trkpt lat="45.6916281" lon="9.0410088"><ele>277.0</ele><time>2026-04-22T08:51:22.998Z</time></trkpt><trkpt lat="45.6916394" lon="9.0408947"><ele>277.0</ele><time>2026-04-22T08:51:23.998Z</time></trkpt><trkpt lat="45.6916531" lon="9.0407906"><ele>277.0</ele><time>2026-04-22T08:51:24.998Z</time></trkpt><trkpt lat="45.6916654" lon="9.0406945"><ele>277.0</ele><time>2026-04-22T08:51:25.998Z</time></trkpt><trkpt lat="45.6916901" lon="9.0405659"><ele>277.0</ele><time>2026-04-22T08:51:27.999Z</time></trkpt><trkpt lat="45.6917207" lon="9.040444"><ele>277.0</ele><time>2026-04-22T08:51:31.998Z</time></trkpt><trkpt lat="45.6917497" lon="9.0403234"><ele>277.0</ele><time>2026-04-22T08:51:33.997Z</time></trkpt><trkpt lat="45.6917428" lon="9.0401683"><ele>277.0</ele><time>2026-04-22T08:51:35.998Z</time></trkpt><trkpt lat="45.6917387" lon="9.0400728"><ele>277.0</ele><time>2026-04-22T08:51:36.998Z</time></trkpt><trkpt lat="45.6917397" lon="9.0399635"><ele>277.0</ele><time>2026-04-22T08:51:37.999Z</time></trkpt><trkpt lat="45.6917454" lon="9.0398458"><ele>277.0</ele><time>2026-04-22T08:51:38.998Z</time></trkpt><trkpt lat="45.6917606" lon="9.0397233"><ele>277.0</ele><time>2026-04-22T08:51:39.999Z</time></trkpt><trkpt lat="45.6917838" lon="9.0395948"><ele>277.2</ele><time>2026-04-22T08:51:40.998Z</time></trkpt><trkpt lat="45.6918141" lon="9.0394587"><ele>277.4</ele><time>2026-04-22T08:51:41.998Z</time></trkpt><trkpt lat="45.6918508" lon="9.0393183"><ele>277.6</ele><time>2026-04-22T08:51:42.999Z</time></trkpt><trkpt lat="45.6918909" lon="9.0391703"><ele>277.8</ele><time>2026-04-22T08:51:43.998Z</time></trkpt><trkpt lat="45.691935" lon="9.0390113"><ele>278.0</ele><time>2026-04-22T08:51:44.998Z</time></trkpt><trkpt lat="45.6919794" lon="9.0388436"><ele>278.5</ele><time>2026-04-22T08:51:45.999Z</time></trkpt><trkpt lat="45.6920258" lon="9.0386718"><ele>279.0</ele><time>2026-04-22T08:51:46.998Z</time></trkpt><trkpt lat="45.692072" lon="9.0384911"><ele>279.5</ele><time>2026-04-22T08:51:47.997Z</time></trkpt><trkpt lat="45.6921193" lon="9.0383068"><ele>280.0</ele><time>2026-04-22T08:51:48.999Z</time></trkpt><trkpt lat="45.692169" lon="9.0381155"><ele>280.0</ele><time>2026-04-22T08:51:49.998Z</time></trkpt><trkpt lat="45.6922196" lon="9.0379195"><ele>280.0</ele><time>2026-04-22T08:51:50.998Z</time></trkpt><trkpt lat="45.6922711" lon="9.0377199"><ele>280.0</ele><time>2026-04-22T08:51:51.999Z</time></trkpt><trkpt lat="45.6923241" lon="9.0375173"><ele>280.0</ele><time>2026-04-22T08:51:52.998Z</time></trkpt><trkpt lat="45.6923782" lon="9.0373125"><ele>279.3333333333333</ele><time>2026-04-22T08:51:53.998Z</time></trkpt><trkpt lat="45.6924348" lon="9.0371068"><ele>278.6666666666667</ele><time>2026-04-22T08:51:54.997Z</time></trkpt><trkpt lat="45.6924923" lon="9.0369041"><ele>278.0</ele><time>2026-04-22T08:51:55.997Z</time></trkpt><trkpt lat="45.6925436" lon="9.0367005"><ele>277.75</ele><time>2026-04-22T08:51:56.998Z</time></trkpt><trkpt lat="45.6925949" lon="9.0364999"><ele>277.5</ele><time>2026-04-22T08:51:57.998Z</time></trkpt><trkpt lat="45.692648" lon="9.0363089"><ele>277.25</ele><time>2026-04-22T08:51:58.998Z</time></trkpt><trkpt lat="45.6926903" lon="9.0361284"><ele>277.0</ele><time>2026-04-22T08:51:59.999Z</time></trkpt><trkpt lat="45.6927373" lon="9.0359613"><ele>277.6</ele><time>2026-04-22T08:52:00.999Z</time></trkpt><trkpt lat="45.6927817" lon="9.0358082"><ele>278.2</ele><time>2026-04-22T08:52:01.999Z</time></trkpt><trkpt lat="45.6928232" lon="9.0356573"><ele>278.8</ele><time>2026-04-22T08:52:02.998Z</time></trkpt><trkpt lat="45.6928628" lon="9.0355162"><ele>279.4</ele><time>2026-04-22T08:52:03.998Z</time></trkpt><trkpt lat="45.6928961" lon="9.0353823"><ele>280.0</ele><time>2026-04-22T08:52:04.997Z</time></trkpt><trkpt lat="45.6929286" lon="9.0352543"><ele>280.0</ele><time>2026-04-22T08:52:05.998Z</time></trkpt><trkpt lat="45.6929591" lon="9.0351379"><ele>280.0</ele><time>2026-04-22T08:52:06.998Z</time></trkpt><trkpt lat="45.6929877" lon="9.0350329"><ele>280.0</ele><time>2026-04-22T08:52:07.998Z</time></trkpt><trkpt lat="45.693021" lon="9.0349387"><ele>280.0</ele><time>2026-04-22T08:52:08.998Z</time></trkpt><trkpt lat="45.6930581" lon="9.034845"><ele>280.0</ele><time>2026-04-22T08:52:09.998Z</time></trkpt><trkpt lat="45.693102" lon="9.034762"><ele>280.0</ele><time>2026-04-22T08:52:10.998Z</time></trkpt><trkpt lat="45.693153" lon="9.0346837"><ele>280.0</ele><time>2026-04-22T08:52:11.998Z</time></trkpt><trkpt lat="45.6931982" lon="9.0345983"><ele>280.0</ele><time>2026-04-22T08:52:12.999Z</time></trkpt><trkpt lat="45.6932353" lon="9.0345024"><ele>280.0</ele><time>2026-04-22T08:52:13.999Z</time></trkpt><trkpt lat="45.6932632" lon="9.0343918"><ele>280.0</ele><time>2026-04-22T08:52:14.998Z</time></trkpt><trkpt lat="45.6932834" lon="9.0342695"><ele>280.0</ele><time>2026-04-22T08:52:15.998Z</time></trkpt><trkpt lat="45.6932992" lon="9.0341342"><ele>280.0</ele><time>2026-04-22T08:52:16.999Z</time></trkpt><trkpt lat="45.6933147" lon="9.0339878"><ele>280.0</ele><time>2026-04-22T08:52:17.998Z</time></trkpt><trkpt lat="45.6933379" lon="9.0338354"><ele>280.0</ele><time>2026-04-22T08:52:18.998Z</time></trkpt><trkpt lat="45.6933668" lon="9.0336837"><ele>280.0</ele><time>2026-04-22T08:52:19.998Z</time></trkpt><trkpt lat="45.6934001" lon="9.0335357"><ele>280.0</ele><time>2026-04-22T08:52:20.998Z</time></trkpt><trkpt lat="45.6934387" lon="9.0333985"><ele>280.0</ele><time>2026-04-22T08:52:21.998Z</time></trkpt><trkpt lat="45.6934841" lon="9.0332736"><ele>280.2</ele><time>2026-04-22T08:52:22.999Z</time></trkpt><trkpt lat="45.6935342" lon="9.033158"><ele>280.4</ele><time>2026-04-22T08:52:23.998Z</time></trkpt><trkpt lat="45.6935877" lon="9.033051"><ele>280.6</ele><time>2026-04-22T08:52:24.999Z</time></trkpt><trkpt lat="45.6936473" lon="9.0329516"><ele>280.8</ele><time>2026-04-22T08:52:25.999Z</time></trkpt><trkpt lat="45.6937121" lon="9.0328582"><ele>281.0</ele><time>2026-04-22T08:52:26.999Z</time></trkpt><trkpt lat="45.6937818" lon="9.0327732"><ele>281.40000000000003</ele><time>2026-04-22T08:52:27.999Z</time></trkpt><trkpt lat="45.6938572" lon="9.0326908"><ele>281.8</ele><time>2026-04-22T08:52:28.998Z</time></trkpt><trkpt lat="45.6939372" lon="9.0326117"><ele>282.20000000000005</ele><time>2026-04-22T08:52:29.998Z</time></trkpt><trkpt lat="45.6940217" lon="9.032535"><ele>282.6</ele><time>2026-04-22T08:52:30.998Z</time></trkpt><trkpt lat="45.6941158" lon="9.0324637"><ele>283.0</ele><time>2026-04-22T08:52:31.998Z</time></trkpt><trkpt lat="45.6942115" lon="9.0323985"><ele>283.0</ele><time>2026-04-22T08:52:32.998Z</time></trkpt><trkpt lat="45.6943061" lon="9.0323429"><ele>283.0</ele><time>2026-04-22T08:52:33.998Z</time></trkpt><trkpt lat="45.6943921" lon="9.0322963"><ele>283.0</ele><time>2026-04-22T08:52:34.998Z</time></trkpt><trkpt lat="45.6944665" lon="9.0322635"><ele>283.0</ele><time>2026-04-22T08:52:35.999Z</time></trkpt><trkpt lat="45.6945709" lon="9.0322231"><ele>283.0</ele><time>2026-04-22T08:52:37.999Z</time></trkpt><trkpt lat="45.6946422" lon="9.0321856"><ele>283.16666666666663</ele><time>2026-04-22T08:52:39.999Z</time></trkpt><trkpt lat="45.6946706" lon="9.0321038"><ele>283.3333333333333</ele><time>2026-04-22T08:52:41.998Z</time></trkpt><trkpt lat="45.6946696" lon="9.031973"><ele>283.5</ele><time>2026-04-22T08:52:44.999Z</time></trkpt><trkpt lat="45.6946753" lon="9.0318731"><ele>283.6666666666667</ele><time>2026-04-22T08:52:46.997Z</time></trkpt><trkpt lat="45.6946757" lon="9.0317634"><ele>283.83333333333337</ele><time>2026-04-22T08:52:48.998Z</time></trkpt><trkpt lat="45.694672" lon="9.031645"><ele>284.0</ele><time>2026-04-22T08:52:50.998Z</time></trkpt><trkpt lat="45.6946718" lon="9.0315062"><ele>284.0</ele><time>2026-04-22T08:52:52.999Z</time></trkpt><trkpt lat="45.6946692" lon="9.031354"><ele>284.0</ele><time>2026-04-22T08:52:54.999Z</time></trkpt><trkpt lat="45.6946656" lon="9.0312074"><ele>284.0</ele><time>2026-04-22T08:52:56.998Z</time></trkpt><trkpt lat="45.694667" lon="9.0310633"><ele>284.0</ele><time>2026-04-22T08:52:58.997Z</time></trkpt><trkpt lat="45.6946673" lon="9.0309484"><ele>284.0</ele><time>2026-04-22T08:53:00.998Z</time></trkpt><trkpt lat="45.6946664" lon="9.0308322"><ele>284.0</ele><time>2026-04-22T08:53:03.998Z</time></trkpt><trkpt lat="45.6946445" lon="9.0307388"><ele>284.0</ele><time>2026-04-22T08:53:11.998Z</time></trkpt><trkpt lat="45.694547" lon="9.0307058"><ele>284.0</ele><time>2026-04-22T08:53:14.999Z</time></trkpt><trkpt lat="45.694464" lon="9.0307113"><ele>284.0</ele><time>2026-04-22T08:53:16.998Z</time></trkpt><trkpt lat="45.69439" lon="9.0307055"><ele>284.0</ele><time>2026-04-22T08:53:18.998Z</time></trkpt><trkpt lat="45.6943207" lon="9.0307034"><ele>284.0</ele><time>2026-04-22T08:53:20.999Z</time></trkpt><trkpt lat="45.6942446" lon="9.0306809"><ele>284.0</ele><time>2026-04-22T08:53:23.998Z</time></trkpt><trkpt lat="45.6942367" lon="9.0305716"><ele>284.0</ele><time>2026-04-22T08:54:04.997Z</time></trkpt><trkpt lat="45.6942627" lon="9.030461"><ele>284.0</ele><time>2026-04-22T08:54:07.999Z</time></trkpt></trkseg></trk></gpx>